SIA322 YSSY-LTFM
Flight info
| Callsign | SIA322 |
|---|---|
| Flight time | N/A |
| Altitude | 34000 |
| Route | KADOM A576 PKS G222 ONALA/N0502F360 G222 SAPDA L896 OBMAT/N0494F380 L896 MMV/N0487F400 Q8 AGELA G208 BBB B342 EXOLU M638 IGANU P518 PARET G208 KEBUD L124 SODOK L713 PEGOS T216 DAR/N0508F280 G208 ROVAD/N0489F400 Y11 IKA A647 RUS R661 MIVAK M715 ZAJ R661 TBZ L333 VUVAG/N0494F430 L333 DASIS UL333 SIV UA4 TIMOP UT97 KANQO |
| Aircraft | A359/H-SDE2E3GHIJ3J4J5LM1ORWXY/LB1D1 |
Departure
| Time | 2026-05-06 22:30 |
|---|---|
| Airport | Sydney Kingsford Smith International Airport (YSSY) |
Arrival
| Time | N/A |
|---|---|
| Airport | İstanbul Airport (LTFM) |
| Time | Latitude | Longitude | Altitude | Speed | Heading |
|---|---|---|---|---|---|
| 2026-05-06 21:43 | -33.93888 | 151.16651 | 36 ft | 0 kts | 254° |
| 2026-05-06 22:15 | -33.93881 | 151.16681 | 17 ft | 4 kts | 253° |
| 2026-05-06 22:16 | -33.93873 | 151.16712 | 34 ft | 4 kts | 246° |
| 2026-05-06 22:16 | -33.93862 | 151.16737 | 34 ft | 4 kts | 222° |
| 2026-05-06 22:16 | -33.93851 | 151.16748 | 34 ft | 4 kts | 173° |
| 2026-05-06 22:16 | -33.93850 | 151.16749 | 34 ft | 3 kts | 164° |
| 2026-05-06 22:17 | -33.93875 | 151.16757 | 34 ft | 4 kts | 166° |
| 2026-05-06 22:17 | -33.93901 | 151.16765 | 36 ft | 4 kts | 164° |
| 2026-05-06 22:17 | -33.93927 | 151.16775 | 36 ft | 4 kts | 163° |
| 2026-05-06 22:17 | -33.93948 | 151.16782 | 36 ft | 0 kts | 164° |
| 2026-05-06 22:18 | -33.93967 | 151.16789 | 36 ft | 1 kts | 164° |
| 2026-05-06 22:18 | -33.93969 | 151.16790 | 36 ft | 0 kts | 164° |
| 2026-05-06 22:21 | -33.93988 | 151.16796 | 36 ft | 6 kts | 165° |
| 2026-05-06 22:21 | -33.94049 | 151.16815 | 36 ft | 12 kts | 166° |
| 2026-05-06 22:22 | -33.94155 | 151.16846 | 35 ft | 19 kts | 167° |
| 2026-05-06 22:22 | -33.94305 | 151.16886 | 34 ft | 24 kts | 168° |
| 2026-05-06 22:22 | -33.94407 | 151.16956 | 36 ft | 15 kts | 98° |
| 2026-05-06 22:22 | -33.94385 | 151.17072 | 36 ft | 14 kts | 74° |
| 2026-05-06 22:23 | -33.94358 | 151.17186 | 36 ft | 14 kts | 74° |
| 2026-05-06 22:23 | -33.94344 | 151.17298 | 36 ft | 13 kts | 107° |
| 2026-05-06 22:23 | -33.94416 | 151.17342 | 36 ft | 12 kts | 172° |
| 2026-05-06 22:23 | -33.94497 | 151.17361 | 36 ft | 12 kts | 168° |
| 2026-05-06 22:24 | -33.94580 | 151.17383 | 36 ft | 12 kts | 167° |
| 2026-05-06 22:24 | -33.94665 | 151.17404 | 36 ft | 13 kts | 168° |
| 2026-05-06 22:24 | -33.94752 | 151.17427 | 36 ft | 13 kts | 168° |
| 2026-05-06 22:24 | -33.94854 | 151.17453 | 36 ft | 16 kts | 168° |
| 2026-05-06 22:25 | -33.94972 | 151.17484 | 36 ft | 18 kts | 168° |
| 2026-05-06 22:25 | -33.95104 | 151.17518 | 36 ft | 20 kts | 168° |
| 2026-05-06 22:25 | -33.95248 | 151.17555 | 35 ft | 22 kts | 168° |
| 2026-05-06 22:25 | -33.95403 | 151.17595 | 36 ft | 23 kts | 167° |
| 2026-05-06 22:26 | -33.95566 | 151.17638 | 36 ft | 25 kts | 168° |
| 2026-05-06 22:26 | -33.95737 | 151.17682 | 36 ft | 26 kts | 168° |
| 2026-05-06 22:26 | -33.95918 | 151.17729 | 36 ft | 27 kts | 168° |
| 2026-05-06 22:26 | -33.96109 | 151.17779 | 36 ft | 29 kts | 167° |
| 2026-05-06 22:27 | -33.96305 | 151.17829 | 36 ft | 28 kts | 168° |
| 2026-05-06 22:27 | -33.96429 | 151.17887 | 36 ft | 8 kts | 123° |
| 2026-05-06 22:27 | -33.96430 | 151.17965 | 36 ft | 11 kts | 73° |
| 2026-05-06 22:27 | -33.96403 | 151.18050 | 36 ft | 9 kts | 32° |
| 2026-05-06 22:28 | -33.96366 | 151.18050 | 36 ft | 0 kts | 348° |
| 2026-05-06 22:28 | -33.96337 | 151.18042 | 36 ft | 22 kts | 348° |
| 2026-05-06 22:29 | -33.95992 | 151.17952 | 34 ft | 78 kts | 347° |
| 2026-05-06 22:29 | -33.95291 | 151.17770 | 36 ft | 127 kts | 348° |
| 2026-05-06 22:29 | -33.94282 | 151.17509 | 38 ft | 169 kts | 348° |
| 2026-05-06 22:29 | -33.93134 | 151.17236 | 615 ft | 162 kts | 349° |
| 2026-05-06 22:30 | -33.92014 | 151.17085 | 1094 ft | 167 kts | 354° |
| 2026-05-06 22:30 | -33.90838 | 151.16781 | 1302 ft | 178 kts | 329° |
| 2026-05-06 22:30 | -33.90014 | 151.15659 | 1442 ft | 187 kts | 291° |
| 2026-05-06 22:30 | -33.89712 | 151.14104 | 1735 ft | 195 kts | 281° |
| 2026-05-06 22:31 | -33.89366 | 151.12504 | 2103 ft | 201 kts | 288° |
| 2026-05-06 22:31 | -33.88813 | 151.10926 | 2479 ft | 208 kts | 295° |
| 2026-05-06 22:31 | -33.88113 | 151.09365 | 2821 ft | 217 kts | 299° |
| 2026-05-06 22:31 | -33.87296 | 151.07747 | 3021 ft | 236 kts | 302° |
| 2026-05-06 22:32 | -33.86398 | 151.06036 | 3367 ft | 246 kts | 301° |
| 2026-05-06 22:32 | -33.85485 | 151.04272 | 3873 ft | 250 kts | 300° |
| 2026-05-06 22:32 | -33.84610 | 151.02453 | 4434 ft | 252 kts | 294° |
| 2026-05-06 22:32 | -33.84079 | 151.00441 | 5010 ft | 252 kts | 281° |
| 2026-05-06 22:33 | -33.83725 | 150.98369 | 5568 ft | 254 kts | 281° |
| 2026-05-06 22:33 | -33.83366 | 150.96281 | 6123 ft | 256 kts | 282° |
| 2026-05-06 22:33 | -33.82992 | 150.94171 | 6630 ft | 259 kts | 282° |
| 2026-05-06 22:33 | -33.82609 | 150.92047 | 7158 ft | 261 kts | 282° |
| 2026-05-06 22:34 | -33.82221 | 150.89909 | 7707 ft | 262 kts | 282° |
| 2026-05-06 22:34 | -33.81827 | 150.87756 | 8228 ft | 264 kts | 283° |
| 2026-05-06 22:34 | -33.81433 | 150.85598 | 8756 ft | 266 kts | 283° |
| 2026-05-06 22:34 | -33.81037 | 150.83439 | 9278 ft | 268 kts | 283° |
| 2026-05-06 22:35 | -33.80633 | 150.81241 | 9829 ft | 270 kts | 282° |
| 2026-05-06 22:35 | -33.80224 | 150.79019 | 10247 ft | 276 kts | 282° |
| 2026-05-06 22:35 | -33.79800 | 150.76720 | 10475 ft | 288 kts | 282° |
| 2026-05-06 22:35 | -33.79357 | 150.74321 | 10690 ft | 300 kts | 282° |
| 2026-05-06 22:36 | -33.78895 | 150.71826 | 10903 ft | 312 kts | 282° |
| 2026-05-06 22:36 | -33.78416 | 150.69236 | 11132 ft | 323 kts | 282° |
| 2026-05-06 22:36 | -33.77920 | 150.66556 | 11338 ft | 334 kts | 282° |
| 2026-05-06 22:36 | -33.77408 | 150.63788 | 11551 ft | 345 kts | 282° |
| 2026-05-06 22:37 | -33.76878 | 150.60931 | 11764 ft | 354 kts | 282° |
| 2026-05-06 22:37 | -33.76335 | 150.58006 | 11960 ft | 364 kts | 282° |
| 2026-05-06 22:37 | -33.75776 | 150.55009 | 12211 ft | 370 kts | 282° |
| 2026-05-06 22:37 | -33.75210 | 150.51976 | 12607 ft | 373 kts | 282° |
| 2026-05-06 22:38 | -33.74642 | 150.48920 | 13031 ft | 375 kts | 283° |
| 2026-05-06 22:38 | -33.74067 | 150.45851 | 13444 ft | 376 kts | 283° |
| 2026-05-06 22:38 | -33.73490 | 150.42778 | 13863 ft | 378 kts | 283° |
| 2026-05-06 22:38 | -33.72909 | 150.39686 | 14228 ft | 380 kts | 283° |
| 2026-05-06 22:39 | -33.72325 | 150.36578 | 14579 ft | 382 kts | 283° |
| 2026-05-06 22:39 | -33.71735 | 150.33458 | 14947 ft | 384 kts | 283° |
| 2026-05-06 22:39 | -33.71123 | 150.30325 | 15306 ft | 386 kts | 284° |
| 2026-05-06 22:39 | -33.70392 | 150.27217 | 15678 ft | 388 kts | 287° |
| 2026-05-06 22:40 | -33.69580 | 150.24121 | 16053 ft | 390 kts | 288° |
| 2026-05-06 22:40 | -33.68727 | 150.21025 | 16423 ft | 391 kts | 288° |
| 2026-05-06 22:40 | -33.67857 | 150.17917 | 16757 ft | 394 kts | 288° |
| 2026-05-06 22:40 | -33.66994 | 150.14830 | 17129 ft | 395 kts | 288° |
| 2026-05-06 22:41 | -33.65255 | 150.08540 | 17839 ft | 399 kts | 288° |
| 2026-05-06 22:41 | -33.64384 | 150.05365 | 18159 ft | 401 kts | 288° |
| 2026-05-06 22:41 | -33.63512 | 150.02175 | 18498 ft | 403 kts | 288° |
| 2026-05-06 22:42 | -33.62636 | 149.98971 | 18810 ft | 404 kts | 288° |
| 2026-05-06 22:42 | -33.61758 | 149.95761 | 19133 ft | 406 kts | 288° |
| 2026-05-06 22:42 | -33.60873 | 149.92532 | 19416 ft | 408 kts | 288° |
| 2026-05-06 22:42 | -33.59985 | 149.89295 | 19734 ft | 409 kts | 288° |
| 2026-05-06 22:43 | -33.59092 | 149.86048 | 20056 ft | 410 kts | 288° |
| 2026-05-06 22:43 | -33.58195 | 149.82795 | 20389 ft | 412 kts | 288° |
| 2026-05-06 22:43 | -33.57292 | 149.79522 | 20692 ft | 414 kts | 288° |
| 2026-05-06 22:43 | -33.56385 | 149.76237 | 21018 ft | 415 kts | 288° |
| 2026-05-06 22:44 | -33.55475 | 149.72942 | 21359 ft | 417 kts | 288° |
| 2026-05-06 22:44 | -33.54561 | 149.69638 | 21694 ft | 418 kts | 288° |
| 2026-05-06 22:44 | -33.53643 | 149.66323 | 21991 ft | 420 kts | 288° |
| 2026-05-06 22:44 | -33.52719 | 149.62991 | 22313 ft | 422 kts | 288° |
| 2026-05-06 22:45 | -33.51793 | 149.59652 | 22641 ft | 423 kts | 288° |
| 2026-05-06 22:45 | -33.50861 | 149.56297 | 22968 ft | 425 kts | 288° |
| 2026-05-06 22:45 | -33.49923 | 149.52929 | 23261 ft | 427 kts | 288° |
| 2026-05-06 22:45 | -33.48981 | 149.49546 | 23567 ft | 429 kts | 288° |
| 2026-05-06 22:46 | -33.48036 | 149.46160 | 23860 ft | 431 kts | 288° |
| 2026-05-06 22:46 | -33.47081 | 149.42741 | 24115 ft | 432 kts | 288° |
| 2026-05-06 22:46 | -33.46124 | 149.39321 | 24334 ft | 435 kts | 288° |
| 2026-05-06 22:46 | -33.45158 | 149.35869 | 24594 ft | 437 kts | 288° |
| 2026-05-06 22:47 | -33.44203 | 149.32461 | 24859 ft | 438 kts | 288° |
| 2026-05-06 22:47 | -33.43231 | 149.28996 | 25120 ft | 440 kts | 288° |
| 2026-05-06 22:47 | -33.42254 | 149.25520 | 25342 ft | 442 kts | 288° |
| 2026-05-06 22:47 | -33.41268 | 149.22017 | 25600 ft | 444 kts | 288° |
| 2026-05-06 22:48 | -33.40280 | 149.18505 | 25866 ft | 446 kts | 288° |
| 2026-05-06 22:48 | -33.39288 | 149.14988 | 26140 ft | 447 kts | 288° |
| 2026-05-06 22:48 | -33.38288 | 149.11448 | 26362 ft | 450 kts | 288° |
| 2026-05-06 22:48 | -33.37285 | 149.07898 | 26620 ft | 452 kts | 288° |
| 2026-05-06 22:49 | -33.36275 | 149.04332 | 26892 ft | 453 kts | 288° |
| 2026-05-06 22:49 | -33.35264 | 149.00764 | 27140 ft | 455 kts | 288° |
| 2026-05-06 22:49 | -33.34241 | 148.97161 | 27346 ft | 458 kts | 288° |
| 2026-05-06 22:49 | -33.33214 | 148.93544 | 27605 ft | 460 kts | 288° |
| 2026-05-06 22:50 | -33.32181 | 148.89913 | 27857 ft | 461 kts | 288° |
| 2026-05-06 22:50 | -33.31145 | 148.86278 | 28093 ft | 463 kts | 288° |
| 2026-05-06 22:50 | -33.30104 | 148.82624 | 28284 ft | 465 kts | 289° |
| 2026-05-06 22:50 | -33.29055 | 148.78954 | 28507 ft | 467 kts | 289° |
| 2026-05-06 22:51 | -33.28003 | 148.75273 | 28736 ft | 469 kts | 289° |
| 2026-05-06 22:51 | -33.26946 | 148.71582 | 28935 ft | 470 kts | 289° |
| 2026-05-06 22:51 | -33.25885 | 148.67880 | 29155 ft | 471 kts | 289° |
| 2026-05-06 22:51 | -33.24821 | 148.64171 | 29470 ft | 471 kts | 289° |
| 2026-05-06 22:52 | -33.23759 | 148.60476 | 29767 ft | 470 kts | 289° |
| 2026-05-06 22:52 | -33.22699 | 148.56790 | 30065 ft | 469 kts | 289° |
| 2026-05-06 22:52 | -33.21649 | 148.53147 | 30285 ft | 470 kts | 289° |
| 2026-05-06 22:52 | -33.20584 | 148.49454 | 30516 ft | 470 kts | 289° |
| 2026-05-06 22:53 | -33.19522 | 148.45778 | 30809 ft | 468 kts | 289° |
| 2026-05-06 22:53 | -33.18464 | 148.42118 | 31107 ft | 466 kts | 289° |
| 2026-05-06 22:53 | -33.17749 | 148.39648 | 31276 ft | 465 kts | 289° |
| 2026-05-06 22:53 | -33.16348 | 148.34813 | 31577 ft | 465 kts | 289° |
| 2026-05-06 22:54 | -33.15633 | 148.32351 | 31767 ft | 464 kts | 289° |
| 2026-05-06 22:54 | -33.14591 | 148.28762 | 32039 ft | 462 kts | 289° |
| 2026-05-06 22:54 | -33.13538 | 148.25141 | 32259 ft | 462 kts | 289° |
| 2026-05-06 22:54 | -33.12469 | 148.21524 | 32455 ft | 462 kts | 290° |
| 2026-05-06 22:55 | -33.11267 | 148.17977 | 32695 ft | 460 kts | 293° |
| 2026-05-06 22:55 | -33.09967 | 148.14484 | 32951 ft | 459 kts | 294° |
| 2026-05-06 22:55 | -33.08639 | 148.11016 | 33165 ft | 458 kts | 294° |
| 2026-05-06 22:55 | -33.07319 | 148.07556 | 33351 ft | 458 kts | 294° |
| 2026-05-06 22:56 | -33.06016 | 148.04095 | 33577 ft | 457 kts | 293° |
| 2026-05-06 22:56 | -33.04733 | 148.00641 | 33820 ft | 455 kts | 293° |
| 2026-05-06 22:56 | -33.03463 | 147.97186 | 34005 ft | 454 kts | 293° |
| 2026-05-06 22:56 | -33.02216 | 147.93777 | 34179 ft | 455 kts | 293° |
| 2026-05-06 22:57 | -33.00951 | 147.90312 | 34230 ft | 457 kts | 293° |
| 2026-05-06 22:57 | -32.98397 | 147.83323 | 34224 ft | 461 kts | 293° |
| 2026-05-06 22:58 | -32.95829 | 147.76323 | 34233 ft | 460 kts | 293° |
| 2026-05-06 22:58 | -32.93259 | 147.69339 | 34234 ft | 461 kts | 293° |
| 2026-05-06 22:59 | -32.90680 | 147.62343 | 34243 ft | 461 kts | 293° |
| 2026-05-06 22:59 | -32.88100 | 147.55359 | 34242 ft | 461 kts | 293° |
| 2026-05-06 23:00 | -32.85511 | 147.48366 | 34245 ft | 461 kts | 293° |
| 2026-05-06 23:00 | -32.82936 | 147.41424 | 34251 ft | 462 kts | 293° |
| 2026-05-06 23:01 | -32.80337 | 147.34432 | 34254 ft | 462 kts | 293° |
| 2026-05-06 23:01 | -32.77735 | 147.27448 | 34256 ft | 462 kts | 293° |
| 2026-05-06 23:02 | -32.75129 | 147.20467 | 34259 ft | 462 kts | 293° |
| 2026-05-06 23:02 | -32.72518 | 147.13489 | 34261 ft | 462 kts | 293° |
| 2026-05-06 23:03 | -32.69904 | 147.06514 | 34261 ft | 462 kts | 293° |
| 2026-05-06 23:03 | -32.67289 | 146.99550 | 34269 ft | 461 kts | 293° |
| 2026-05-06 23:04 | -32.64676 | 146.92607 | 34270 ft | 461 kts | 293° |
| 2026-05-06 23:04 | -32.62077 | 146.85715 | 34276 ft | 460 kts | 293° |
| 2026-05-06 23:05 | -32.59461 | 146.78795 | 34274 ft | 459 kts | 293° |
| 2026-05-06 23:05 | -32.56848 | 146.71894 | 34280 ft | 458 kts | 293° |
| 2026-05-06 23:06 | -32.54239 | 146.65018 | 34282 ft | 457 kts | 293° |
| 2026-05-06 23:06 | -32.51630 | 146.58156 | 34292 ft | 456 kts | 293° |
| 2026-05-06 23:07 | -32.49026 | 146.51319 | 34290 ft | 455 kts | 293° |
| 2026-05-06 23:07 | -32.46418 | 146.44486 | 34290 ft | 455 kts | 293° |
| 2026-05-06 23:08 | -32.43811 | 146.37671 | 34293 ft | 454 kts | 293° |
| 2026-05-06 23:08 | -32.41217 | 146.30902 | 34553 ft | 453 kts | 293° |
| 2026-05-06 23:08 | -32.39924 | 146.27555 | 34436 ft | 438 kts | 292° |
| 2026-05-06 23:09 | -32.38683 | 146.24339 | 34300 ft | 421 kts | 292° |
| 2026-05-06 23:09 | -32.37487 | 146.21235 | 34295 ft | 410 kts | 291° |
| 2026-05-06 23:09 | -32.36311 | 146.18174 | 34295 ft | 409 kts | 291° |
| 2026-05-06 23:10 | -32.33953 | 146.12032 | 34298 ft | 410 kts | 291° |
| 2026-05-06 23:10 | -32.31583 | 146.05879 | 34305 ft | 411 kts | 291° |
| 2026-05-06 23:11 | -32.29201 | 145.99719 | 34303 ft | 412 kts | 292° |
| 2026-05-06 23:11 | -32.26810 | 145.93550 | 34307 ft | 413 kts | 291° |
| 2026-05-06 23:12 | -32.24414 | 145.87379 | 34308 ft | 413 kts | 291° |
| 2026-05-06 23:12 | -32.22027 | 145.81238 | 34306 ft | 414 kts | 292° |
| 2026-05-06 23:13 | -32.19618 | 145.75053 | 34311 ft | 415 kts | 291° |
| 2026-05-06 23:13 | -32.17200 | 145.68857 | 34318 ft | 415 kts | 292° |
| 2026-05-06 23:14 | -32.14779 | 145.62663 | 34320 ft | 416 kts | 292° |
| 2026-05-06 23:14 | -32.12351 | 145.56463 | 34316 ft | 416 kts | 292° |
| 2026-05-06 23:15 | -32.09917 | 145.50260 | 34326 ft | 417 kts | 292° |
| 2026-05-06 23:15 | -32.07478 | 145.44052 | 34323 ft | 417 kts | 292° |
| 2026-05-06 23:16 | -32.05033 | 145.37842 | 34324 ft | 418 kts | 292° |
| 2026-05-06 23:16 | -32.02583 | 145.31631 | 34329 ft | 418 kts | 292° |
| 2026-05-06 23:17 | -32.00124 | 145.25416 | 34330 ft | 419 kts | 292° |
| 2026-05-06 23:17 | -31.97657 | 145.19194 | 34331 ft | 419 kts | 292° |
| 2026-05-06 23:18 | -31.95184 | 145.12971 | 34332 ft | 419 kts | 292° |
| 2026-05-06 23:18 | -31.92722 | 145.06784 | 34331 ft | 420 kts | 292° |
| 2026-05-06 23:19 | -31.90238 | 145.00553 | 34333 ft | 421 kts | 292° |
| 2026-05-06 23:19 | -31.87746 | 144.94314 | 34337 ft | 421 kts | 292° |
| 2026-05-06 23:20 | -31.85249 | 144.88072 | 34339 ft | 422 kts | 292° |
| 2026-05-06 23:20 | -31.82744 | 144.81821 | 34340 ft | 422 kts | 292° |
| 2026-05-06 23:21 | -31.80233 | 144.75567 | 34342 ft | 423 kts | 292° |
| 2026-05-06 23:21 | -31.77718 | 144.69314 | 34342 ft | 423 kts | 292° |
| 2026-05-06 23:22 | -31.75209 | 144.63087 | 34345 ft | 424 kts | 292° |
| 2026-05-06 23:22 | -31.72681 | 144.56825 | 34347 ft | 424 kts | 292° |
| 2026-05-06 23:23 | -31.70148 | 144.50559 | 34349 ft | 424 kts | 292° |
| 2026-05-06 23:23 | -31.67614 | 144.44304 | 34348 ft | 425 kts | 292° |
| 2026-05-06 23:24 | -31.65073 | 144.38040 | 34350 ft | 425 kts | 292° |
| 2026-05-06 23:24 | -31.62526 | 144.31775 | 34354 ft | 425 kts | 292° |
| 2026-05-06 23:25 | -31.59976 | 144.25511 | 34356 ft | 425 kts | 292° |
| 2026-05-06 23:25 | -31.57435 | 144.19280 | 34356 ft | 426 kts | 292° |
| 2026-05-06 23:26 | -31.54871 | 144.13006 | 34357 ft | 426 kts | 292° |
| 2026-05-06 23:26 | -31.52307 | 144.06741 | 34363 ft | 427 kts | 292° |
| 2026-05-06 23:27 | -31.49734 | 144.00463 | 34359 ft | 427 kts | 292° |
| 2026-05-06 23:27 | -31.47158 | 143.94192 | 34362 ft | 427 kts | 292° |
| 2026-05-06 23:28 | -31.44574 | 143.87913 | 34370 ft | 428 kts | 292° |
| 2026-05-06 23:28 | -31.41985 | 143.81631 | 34372 ft | 428 kts | 292° |
| 2026-05-06 23:29 | -31.39390 | 143.75345 | 34375 ft | 429 kts | 292° |
| 2026-05-06 23:29 | -31.36809 | 143.69104 | 34380 ft | 429 kts | 292° |
| 2026-05-06 23:30 | -31.34206 | 143.62822 | 34382 ft | 429 kts | 292° |
| 2026-05-06 23:30 | -31.31597 | 143.56534 | 34383 ft | 429 kts | 293° |
| 2026-05-06 23:31 | -31.28987 | 143.50256 | 34385 ft | 429 kts | 293° |
| 2026-05-06 23:31 | -31.26374 | 143.43980 | 34386 ft | 429 kts | 293° |
| 2026-05-06 23:32 | -31.23754 | 143.37701 | 34389 ft | 430 kts | 293° |
| 2026-05-06 23:32 | -31.21127 | 143.31415 | 34397 ft | 430 kts | 293° |
| 2026-05-06 23:33 | -31.18502 | 143.25143 | 34377 ft | 430 kts | 293° |
| 2026-05-06 23:33 | -31.15869 | 143.18863 | 34393 ft | 430 kts | 293° |
| 2026-05-06 23:34 | -31.13245 | 143.12615 | 34397 ft | 431 kts | 293° |
| 2026-05-06 23:34 | -31.10603 | 143.06337 | 34396 ft | 431 kts | 293° |
| 2026-05-06 23:35 | -31.07953 | 143.00048 | 34392 ft | 431 kts | 293° |
| 2026-05-06 23:35 | -31.05301 | 142.93767 | 34396 ft | 431 kts | 293° |
| 2026-05-06 23:36 | -31.03095 | 142.88551 | 34396 ft | 431 kts | 293° |
| 2026-05-06 23:36 | -31.00434 | 142.82268 | 34394 ft | 432 kts | 293° |
| 2026-05-06 23:37 | -30.97764 | 142.75988 | 34394 ft | 432 kts | 293° |
| 2026-05-06 23:37 | -30.95095 | 142.69703 | 34394 ft | 432 kts | 293° |
| 2026-05-06 23:38 | -30.92425 | 142.63424 | 34398 ft | 433 kts | 293° |
| 2026-05-06 23:38 | -30.89747 | 142.57144 | 34397 ft | 433 kts | 293° |
| 2026-05-06 23:39 | -30.87082 | 142.50905 | 34397 ft | 433 kts | 294° |
| 2026-05-06 23:39 | -30.84396 | 142.44629 | 34402 ft | 433 kts | 294° |
| 2026-05-06 23:40 | -30.81705 | 142.38349 | 34395 ft | 434 kts | 294° |
| 2026-05-06 23:40 | -30.79004 | 142.32061 | 34400 ft | 434 kts | 294° |
| 2026-05-06 23:41 | -30.76304 | 142.25782 | 34400 ft | 434 kts | 294° |
| 2026-05-06 23:41 | -30.73596 | 142.19496 | 34402 ft | 434 kts | 294° |
| 2026-05-06 23:42 | -30.70885 | 142.13213 | 34404 ft | 434 kts | 294° |
| 2026-05-06 23:42 | -30.68190 | 142.06978 | 34399 ft | 435 kts | 294° |
| 2026-05-06 23:43 | -30.65469 | 142.00693 | 34401 ft | 435 kts | 294° |
| 2026-05-06 23:43 | -30.62746 | 141.94416 | 34401 ft | 435 kts | 294° |
| 2026-05-06 23:44 | -30.60021 | 141.88144 | 34402 ft | 435 kts | 294° |
| 2026-05-06 23:44 | -30.57293 | 141.81876 | 34405 ft | 435 kts | 294° |
| 2026-05-06 23:45 | -30.54563 | 141.75609 | 34404 ft | 436 kts | 294° |
| 2026-05-06 23:45 | -30.51822 | 141.69332 | 34403 ft | 436 kts | 294° |
| 2026-05-06 23:46 | -30.49079 | 141.63060 | 34399 ft | 436 kts | 294° |
| 2026-05-06 23:46 | -30.46342 | 141.56812 | 34402 ft | 436 kts | 294° |
| 2026-05-06 23:47 | -30.43590 | 141.50540 | 34414 ft | 437 kts | 294° |
| 2026-05-06 23:47 | -30.40832 | 141.44264 | 34411 ft | 437 kts | 294° |
| 2026-05-06 23:48 | -30.38069 | 141.37987 | 34410 ft | 437 kts | 294° |
| 2026-05-06 23:48 | -30.35298 | 141.31703 | 34407 ft | 438 kts | 294° |
| 2026-05-06 23:49 | -30.32526 | 141.25429 | 34407 ft | 438 kts | 294° |
| 2026-05-06 23:49 | -30.29748 | 141.19149 | 34410 ft | 438 kts | 294° |
| 2026-05-06 23:50 | -30.26966 | 141.12871 | 34412 ft | 439 kts | 294° |
| 2026-05-06 23:50 | -30.22779 | 141.03441 | 34416 ft | 439 kts | 295° |
| 2026-05-06 23:51 | -30.19979 | 140.97149 | 34416 ft | 440 kts | 295° |
| 2026-05-06 23:51 | -30.17179 | 140.90858 | 34413 ft | 440 kts | 295° |
| 2026-05-06 23:52 | -30.14387 | 140.84608 | 34412 ft | 441 kts | 295° |
| 2026-05-06 23:52 | -30.11571 | 140.78314 | 34416 ft | 441 kts | 295° |
| 2026-05-06 23:53 | -30.08750 | 140.72020 | 34418 ft | 441 kts | 295° |
| 2026-05-06 23:53 | -30.05922 | 140.65717 | 34418 ft | 442 kts | 295° |
| 2026-05-06 23:54 | -30.03095 | 140.59426 | 34414 ft | 442 kts | 295° |
| 2026-05-06 23:54 | -30.00260 | 140.53130 | 34419 ft | 442 kts | 295° |
| 2026-05-06 23:55 | -29.97423 | 140.46838 | 34418 ft | 442 kts | 295° |
| 2026-05-06 23:55 | -29.94574 | 140.40531 | 34421 ft | 443 kts | 295° |
| 2026-05-06 23:56 | -29.91724 | 140.34228 | 34418 ft | 443 kts | 295° |
| 2026-05-06 23:56 | -29.88882 | 140.27955 | 34427 ft | 443 kts | 295° |
| 2026-05-06 23:57 | -29.86021 | 140.21653 | 34423 ft | 444 kts | 295° |
| 2026-05-06 23:57 | -29.83151 | 140.15338 | 34419 ft | 445 kts | 295° |
| 2026-05-06 23:58 | -29.80278 | 140.09028 | 34418 ft | 445 kts | 295° |
| 2026-05-06 23:58 | -29.77395 | 140.02707 | 34426 ft | 446 kts | 296° |
| 2026-05-06 23:59 | -29.74511 | 139.96395 | 34422 ft | 446 kts | 296° |
| 2026-05-06 23:59 | -29.71618 | 139.90071 | 34418 ft | 447 kts | 296° |
| 2026-05-07 00:00 | -29.68721 | 139.83749 | 34411 ft | 447 kts | 296° |
| 2026-05-07 00:00 | -29.66304 | 139.78494 | 34416 ft | 447 kts | 296° |
| 2026-05-07 00:01 | -29.62908 | 139.71103 | 34413 ft | 448 kts | 296° |
| 2026-05-07 00:01 | -29.59992 | 139.64767 | 34413 ft | 448 kts | 296° |
| 2026-05-07 00:02 | -29.57092 | 139.58479 | 34413 ft | 448 kts | 296° |
| 2026-05-07 00:02 | -29.54152 | 139.52116 | 34408 ft | 448 kts | 296° |
| 2026-05-07 00:03 | -29.51239 | 139.45823 | 34406 ft | 448 kts | 296° |
| 2026-05-07 00:03 | -29.48307 | 139.39497 | 34407 ft | 449 kts | 296° |
| 2026-05-07 00:04 | -29.45366 | 139.33162 | 34403 ft | 450 kts | 296° |
| 2026-05-07 00:04 | -29.42420 | 139.26829 | 34403 ft | 450 kts | 296° |
| 2026-05-07 00:05 | -29.39472 | 139.20499 | 34403 ft | 450 kts | 296° |
| 2026-05-07 00:05 | -29.36517 | 139.14163 | 34402 ft | 451 kts | 296° |
| 2026-05-07 00:06 | -29.33556 | 139.07827 | 34402 ft | 451 kts | 296° |
| 2026-05-07 00:06 | -29.30584 | 139.01477 | 34404 ft | 451 kts | 296° |
| 2026-05-07 00:07 | -29.27610 | 138.95132 | 34403 ft | 452 kts | 296° |
| 2026-05-07 00:07 | -29.24632 | 138.88789 | 34404 ft | 452 kts | 296° |
| 2026-05-07 00:08 | -29.21650 | 138.82448 | 34403 ft | 452 kts | 297° |
| 2026-05-07 00:08 | -29.18665 | 138.76110 | 34406 ft | 453 kts | 297° |
| 2026-05-07 00:09 | -29.15691 | 138.69806 | 34404 ft | 453 kts | 297° |
| 2026-05-07 00:09 | -29.12694 | 138.63463 | 34405 ft | 453 kts | 297° |
| 2026-05-07 00:10 | -29.09691 | 138.57116 | 34406 ft | 453 kts | 297° |
| 2026-05-07 00:10 | -29.06681 | 138.50767 | 34404 ft | 454 kts | 297° |
| 2026-05-07 00:11 | -29.03672 | 138.44428 | 34402 ft | 454 kts | 297° |
| 2026-05-07 00:11 | -29.00657 | 138.38087 | 34406 ft | 454 kts | 297° |
| 2026-05-07 00:12 | -28.97639 | 138.31748 | 34410 ft | 454 kts | 297° |
| 2026-05-07 00:12 | -28.94609 | 138.25396 | 34409 ft | 455 kts | 297° |
| 2026-05-07 00:13 | -28.91584 | 138.19063 | 34408 ft | 455 kts | 297° |
| 2026-05-07 00:13 | -28.88566 | 138.12756 | 34405 ft | 455 kts | 297° |
| 2026-05-07 00:14 | -28.85535 | 138.06430 | 34408 ft | 455 kts | 297° |
| 2026-05-07 00:14 | -28.82495 | 138.00097 | 34411 ft | 455 kts | 297° |
| 2026-05-07 00:15 | -28.79451 | 137.93763 | 34406 ft | 455 kts | 297° |
| 2026-05-07 00:15 | -28.76397 | 137.87419 | 34402 ft | 456 kts | 297° |
| 2026-05-07 00:16 | -28.73344 | 137.81088 | 34405 ft | 456 kts | 297° |
| 2026-05-07 00:16 | -28.70801 | 137.75821 | 34407 ft | 456 kts | 297° |
| 2026-05-07 00:17 | -28.67738 | 137.69487 | 34404 ft | 456 kts | 297° |
| 2026-05-07 00:17 | -28.64673 | 137.63159 | 34404 ft | 457 kts | 297° |
| 2026-05-07 00:18 | -28.61599 | 137.56822 | 34402 ft | 457 kts | 298° |
| 2026-05-07 00:18 | -28.58520 | 137.50485 | 34400 ft | 457 kts | 298° |
| 2026-05-07 00:19 | -28.55459 | 137.44194 | 34401 ft | 457 kts | 298° |
| 2026-05-07 00:19 | -28.52370 | 137.37855 | 34403 ft | 457 kts | 298° |
| 2026-05-07 00:20 | -28.49284 | 137.31531 | 34402 ft | 458 kts | 298° |
| 2026-05-07 00:20 | -28.46192 | 137.25205 | 34404 ft | 458 kts | 298° |
| 2026-05-07 00:21 | -28.43093 | 137.18875 | 34405 ft | 458 kts | 298° |
| 2026-05-07 00:21 | -28.39997 | 137.12560 | 34405 ft | 458 kts | 298° |
| 2026-05-07 00:22 | -28.36893 | 137.06240 | 34406 ft | 458 kts | 298° |
| 2026-05-07 00:22 | -28.33789 | 136.99928 | 34405 ft | 458 kts | 298° |
| 2026-05-07 00:23 | -28.30679 | 136.93613 | 34402 ft | 458 kts | 298° |
| 2026-05-07 00:23 | -28.27567 | 136.87304 | 34406 ft | 458 kts | 298° |
| 2026-05-07 00:24 | -28.24473 | 136.81041 | 34401 ft | 458 kts | 298° |
| 2026-05-07 00:24 | -28.21353 | 136.74737 | 34406 ft | 458 kts | 298° |
| 2026-05-07 00:25 | -28.18226 | 136.68447 | 34406 ft | 458 kts | 298° |
| 2026-05-07 00:25 | -28.15093 | 136.62158 | 34402 ft | 458 kts | 298° |
| 2026-05-07 00:26 | -28.11958 | 136.55872 | 34404 ft | 458 kts | 298° |
| 2026-05-07 00:26 | -28.08822 | 136.49595 | 34404 ft | 458 kts | 298° |
| 2026-05-07 00:27 | -28.05680 | 136.43311 | 34407 ft | 458 kts | 298° |
| 2026-05-07 00:27 | -28.02534 | 136.37032 | 34408 ft | 458 kts | 299° |
| 2026-05-07 00:28 | -27.99390 | 136.30764 | 34411 ft | 458 kts | 299° |
| 2026-05-07 00:28 | -27.96243 | 136.24500 | 34413 ft | 458 kts | 299° |
| 2026-05-07 00:29 | -27.93090 | 136.18235 | 34409 ft | 458 kts | 299° |
| 2026-05-07 00:30 | -27.86782 | 136.05729 | 34411 ft | 458 kts | 299° |
| 2026-05-07 00:30 | -27.83641 | 135.99516 | 34413 ft | 457 kts | 299° |
| 2026-05-07 00:31 | -27.80482 | 135.93274 | 34413 ft | 457 kts | 299° |
| 2026-05-07 00:31 | -27.77317 | 135.87031 | 34411 ft | 457 kts | 299° |
| 2026-05-07 00:32 | -27.74150 | 135.80793 | 34410 ft | 457 kts | 299° |
| 2026-05-07 00:32 | -27.70986 | 135.74569 | 34412 ft | 457 kts | 299° |
| 2026-05-07 00:33 | -27.67816 | 135.68345 | 34409 ft | 457 kts | 299° |
| 2026-05-07 00:33 | -27.64663 | 135.62160 | 34412 ft | 457 kts | 299° |
| 2026-05-07 00:34 | -27.61483 | 135.55934 | 34408 ft | 457 kts | 299° |
| 2026-05-07 00:34 | -27.58307 | 135.49723 | 34412 ft | 457 kts | 299° |
| 2026-05-07 00:35 | -27.55126 | 135.43513 | 34414 ft | 457 kts | 299° |
| 2026-05-07 00:35 | -27.51961 | 135.37296 | 34431 ft | 457 kts | 299° |
| 2026-05-07 00:36 | -27.48810 | 135.31072 | 34413 ft | 457 kts | 299° |
| 2026-05-07 00:36 | -27.45678 | 135.24902 | 34413 ft | 457 kts | 299° |
| 2026-05-07 00:37 | -27.42520 | 135.18699 | 34409 ft | 457 kts | 299° |
| 2026-05-07 00:37 | -27.39359 | 135.12502 | 34411 ft | 456 kts | 299° |
| 2026-05-07 00:38 | -27.36195 | 135.06310 | 34411 ft | 456 kts | 299° |
| 2026-05-07 00:38 | -27.33027 | 135.00117 | 34422 ft | 456 kts | 299° |
| 2026-05-07 00:39 | -27.29860 | 134.93935 | 34411 ft | 456 kts | 299° |
| 2026-05-07 00:39 | -27.26691 | 134.87757 | 34430 ft | 456 kts | 299° |
| 2026-05-07 00:40 | -27.23517 | 134.81579 | 34408 ft | 456 kts | 299° |
| 2026-05-07 00:40 | -27.20342 | 134.75409 | 34415 ft | 456 kts | 299° |
| 2026-05-07 00:41 | -27.17163 | 134.69239 | 34408 ft | 456 kts | 299° |
| 2026-05-07 00:41 | -27.13984 | 134.63078 | 34422 ft | 456 kts | 299° |
| 2026-05-07 00:42 | -27.10805 | 134.56925 | 34402 ft | 455 kts | 300° |
| 2026-05-07 00:42 | -27.07623 | 134.50775 | 34420 ft | 455 kts | 300° |
| 2026-05-07 00:43 | -27.04459 | 134.44668 | 34406 ft | 455 kts | 300° |
| 2026-05-07 00:43 | -27.01273 | 134.38529 | 34431 ft | 455 kts | 300° |
| 2026-05-07 00:44 | -26.98081 | 134.32385 | 34405 ft | 455 kts | 300° |
| 2026-05-07 00:44 | -26.94887 | 134.26246 | 34423 ft | 455 kts | 300° |
| 2026-05-07 00:45 | -26.91694 | 134.20119 | 34422 ft | 455 kts | 300° |
| 2026-05-07 00:45 | -26.88518 | 134.14031 | 34420 ft | 455 kts | 300° |
| 2026-05-07 00:46 | -26.85323 | 134.07916 | 34423 ft | 455 kts | 300° |
| 2026-05-07 00:46 | -26.82126 | 134.01805 | 34415 ft | 455 kts | 300° |
| 2026-05-07 00:47 | -26.78923 | 133.95692 | 34419 ft | 455 kts | 300° |
| 2026-05-07 00:47 | -26.75722 | 133.89591 | 34422 ft | 454 kts | 300° |
| 2026-05-07 00:48 | -26.72520 | 133.83497 | 34417 ft | 454 kts | 300° |
| 2026-05-07 00:48 | -26.69312 | 133.77401 | 34420 ft | 454 kts | 300° |
| 2026-05-07 00:49 | -26.66102 | 133.71307 | 34411 ft | 454 kts | 300° |
| 2026-05-07 00:49 | -26.62893 | 133.65224 | 34414 ft | 454 kts | 300° |
| 2026-05-07 00:50 | -26.59680 | 133.59142 | 34418 ft | 454 kts | 300° |
| 2026-05-07 00:50 | -26.56466 | 133.53067 | 34417 ft | 454 kts | 300° |
| 2026-05-07 00:51 | -26.53247 | 133.46991 | 34400 ft | 454 kts | 300° |
| 2026-05-07 00:51 | -26.50049 | 133.40962 | 34414 ft | 454 kts | 300° |
| 2026-05-07 00:52 | -26.46824 | 133.34890 | 34420 ft | 454 kts | 300° |
| 2026-05-07 00:52 | -26.43597 | 133.28824 | 34416 ft | 454 kts | 300° |
| 2026-05-07 00:53 | -26.40375 | 133.22774 | 34415 ft | 454 kts | 300° |
| 2026-05-07 00:53 | -26.37141 | 133.16709 | 34417 ft | 454 kts | 300° |
| 2026-05-07 00:54 | -26.33910 | 133.10659 | 34414 ft | 454 kts | 300° |
| 2026-05-07 00:54 | -26.30675 | 133.04611 | 34415 ft | 454 kts | 300° |
| 2026-05-07 00:55 | -26.27442 | 132.98574 | 34410 ft | 454 kts | 300° |
| 2026-05-07 00:55 | -26.24226 | 132.92575 | 34412 ft | 453 kts | 300° |
| 2026-05-07 00:56 | -26.20988 | 132.86545 | 34416 ft | 454 kts | 300° |
| 2026-05-07 00:56 | -26.17741 | 132.80511 | 34415 ft | 454 kts | 300° |
| 2026-05-07 00:57 | -26.14495 | 132.74480 | 34413 ft | 454 kts | 300° |
| 2026-05-07 00:57 | -26.11245 | 132.68450 | 34413 ft | 454 kts | 300° |
| 2026-05-07 00:58 | -26.08545 | 132.63448 | 34411 ft | 454 kts | 300° |
| 2026-05-07 00:58 | -26.05291 | 132.57427 | 34404 ft | 454 kts | 300° |
| 2026-05-07 00:59 | -26.00409 | 132.48410 | 34409 ft | 453 kts | 300° |
| 2026-05-07 01:00 | -25.97144 | 132.42389 | 34402 ft | 453 kts | 300° |
| 2026-05-07 01:00 | -25.93906 | 132.36425 | 34398 ft | 453 kts | 300° |
| 2026-05-07 01:01 | -25.90644 | 132.30427 | 34407 ft | 453 kts | 300° |
| 2026-05-07 01:01 | -25.87381 | 132.24433 | 34401 ft | 453 kts | 300° |
| 2026-05-07 01:02 | -25.84117 | 132.18445 | 34402 ft | 453 kts | 300° |
| 2026-05-07 01:02 | -25.80850 | 132.12460 | 34403 ft | 453 kts | 300° |
| 2026-05-07 01:03 | -25.77588 | 132.06492 | 34401 ft | 453 kts | 300° |
| 2026-05-07 01:03 | -25.74320 | 132.00519 | 34400 ft | 453 kts | 300° |
| 2026-05-07 01:04 | -25.71047 | 131.94546 | 34398 ft | 453 kts | 300° |
| 2026-05-07 01:04 | -25.67769 | 131.88571 | 34396 ft | 453 kts | 300° |
| 2026-05-07 01:05 | -25.64492 | 131.82607 | 34397 ft | 453 kts | 300° |
| 2026-05-07 01:05 | -25.61211 | 131.76643 | 34394 ft | 453 kts | 300° |
| 2026-05-07 01:06 | -25.57948 | 131.70718 | 34391 ft | 453 kts | 300° |
| 2026-05-07 01:06 | -25.54661 | 131.64758 | 34392 ft | 453 kts | 300° |
| 2026-05-07 01:07 | -25.51373 | 131.58804 | 34393 ft | 453 kts | 300° |
| 2026-05-07 01:07 | -25.48086 | 131.52857 | 34387 ft | 453 kts | 300° |
| 2026-05-07 01:08 | -25.44792 | 131.46908 | 34391 ft | 453 kts | 300° |
| 2026-05-07 01:08 | -25.41499 | 131.40966 | 34389 ft | 453 kts | 300° |
| 2026-05-07 01:09 | -25.38201 | 131.35025 | 34388 ft | 453 kts | 300° |
| 2026-05-07 01:09 | -25.34901 | 131.29088 | 34385 ft | 453 kts | 300° |
| 2026-05-07 01:10 | -25.31600 | 131.23155 | 34387 ft | 453 kts | 300° |
| 2026-05-07 01:10 | -25.28295 | 131.17222 | 34382 ft | 453 kts | 300° |
| 2026-05-07 01:11 | -25.24987 | 131.11293 | 34381 ft | 453 kts | 300° |
| 2026-05-07 01:11 | -25.21697 | 131.05403 | 34386 ft | 453 kts | 300° |
| 2026-05-07 01:12 | -25.18381 | 130.99479 | 34384 ft | 453 kts | 300° |
| 2026-05-07 01:12 | -25.14574 | 130.93913 | 34382 ft | 455 kts | 307° |
| 2026-05-07 01:13 | -25.10531 | 130.88545 | 34379 ft | 455 kts | 308° |
| 2026-05-07 01:13 | -25.06452 | 130.83204 | 34380 ft | 455 kts | 308° |
| 2026-05-07 01:14 | -25.02370 | 130.77854 | 34383 ft | 455 kts | 307° |
| 2026-05-07 01:14 | -24.98299 | 130.72509 | 34377 ft | 455 kts | 307° |
| 2026-05-07 01:15 | -24.94224 | 130.67158 | 34378 ft | 455 kts | 308° |
| 2026-05-07 01:15 | -24.90182 | 130.61858 | 34379 ft | 455 kts | 307° |
| 2026-05-07 01:16 | -24.86110 | 130.56524 | 34375 ft | 455 kts | 307° |
| 2026-05-07 01:16 | -24.82036 | 130.51195 | 34372 ft | 454 kts | 307° |
| 2026-05-07 01:17 | -24.77964 | 130.45872 | 34371 ft | 454 kts | 307° |
| 2026-05-07 01:17 | -24.73890 | 130.40554 | 34373 ft | 454 kts | 307° |
| 2026-05-07 01:18 | -24.69819 | 130.35246 | 34373 ft | 454 kts | 308° |
| 2026-05-07 01:18 | -24.65735 | 130.29927 | 34384 ft | 454 kts | 308° |
| 2026-05-07 01:19 | -24.61657 | 130.24621 | 34368 ft | 454 kts | 308° |
| 2026-05-07 01:19 | -24.57604 | 130.19354 | 34381 ft | 454 kts | 308° |
| 2026-05-07 01:20 | -24.53525 | 130.14059 | 34360 ft | 454 kts | 308° |
| 2026-05-07 01:20 | -24.49442 | 130.08765 | 34373 ft | 454 kts | 308° |
| 2026-05-07 01:21 | -24.45363 | 130.03482 | 34367 ft | 454 kts | 308° |
| 2026-05-07 01:21 | -24.41281 | 129.98201 | 34350 ft | 453 kts | 308° |
| 2026-05-07 01:22 | -24.37200 | 129.92926 | 34364 ft | 453 kts | 308° |
| 2026-05-07 01:22 | -24.33112 | 129.87649 | 34362 ft | 453 kts | 308° |
| 2026-05-07 01:23 | -24.29027 | 129.82381 | 34359 ft | 453 kts | 308° |
| 2026-05-07 01:23 | -24.24967 | 129.77150 | 34362 ft | 453 kts | 308° |
| 2026-05-07 01:24 | -24.20881 | 129.71892 | 34358 ft | 453 kts | 308° |
| 2026-05-07 01:24 | -24.16787 | 129.66631 | 34356 ft | 453 kts | 308° |
| 2026-05-07 01:25 | -24.12699 | 129.61383 | 34358 ft | 453 kts | 307° |
| 2026-05-07 01:25 | -24.08608 | 129.56136 | 34352 ft | 453 kts | 307° |
| 2026-05-07 01:26 | -24.04515 | 129.50891 | 34354 ft | 453 kts | 308° |
| 2026-05-07 01:26 | -24.00422 | 129.45651 | 34349 ft | 453 kts | 307° |
| 2026-05-07 01:27 | -23.96331 | 129.40422 | 34349 ft | 453 kts | 308° |
| 2026-05-07 01:27 | -23.92260 | 129.35224 | 34347 ft | 453 kts | 307° |
| 2026-05-07 01:28 | -23.88161 | 129.29993 | 34346 ft | 453 kts | 307° |
| 2026-05-07 01:28 | -23.84060 | 129.24765 | 34345 ft | 453 kts | 307° |
| 2026-05-07 01:29 | -23.79956 | 129.19542 | 34340 ft | 452 kts | 307° |
| 2026-05-07 01:29 | -23.75851 | 129.14321 | 34346 ft | 452 kts | 307° |
| 2026-05-07 01:30 | -23.71749 | 129.09109 | 34340 ft | 452 kts | 307° |
| 2026-05-07 01:30 | -23.67645 | 129.03902 | 34337 ft | 452 kts | 307° |
| 2026-05-07 01:31 | -23.63540 | 128.98697 | 34338 ft | 452 kts | 307° |
| 2026-05-07 01:31 | -23.59458 | 128.93528 | 34339 ft | 452 kts | 307° |
| 2026-05-07 01:32 | -23.55351 | 128.88332 | 34340 ft | 452 kts | 307° |
| 2026-05-07 01:32 | -23.51240 | 128.83137 | 34337 ft | 452 kts | 307° |
| 2026-05-07 01:33 | -23.47126 | 128.77944 | 34334 ft | 452 kts | 307° |
| 2026-05-07 01:33 | -23.43014 | 128.72757 | 34333 ft | 452 kts | 307° |
| 2026-05-07 01:34 | -23.38896 | 128.67570 | 34329 ft | 452 kts | 307° |
| 2026-05-07 01:34 | -23.34773 | 128.62382 | 34330 ft | 452 kts | 307° |
| 2026-05-07 01:35 | -23.30657 | 128.57207 | 34326 ft | 452 kts | 307° |
| 2026-05-07 01:35 | -23.26563 | 128.52065 | 34323 ft | 452 kts | 307° |
| 2026-05-07 01:36 | -23.22431 | 128.46881 | 34323 ft | 452 kts | 307° |
| 2026-05-07 01:36 | -23.18307 | 128.41720 | 34324 ft | 452 kts | 307° |
| 2026-05-07 01:37 | -23.14179 | 128.36558 | 34319 ft | 452 kts | 307° |
| 2026-05-07 01:37 | -23.10052 | 128.31403 | 34317 ft | 452 kts | 307° |
| 2026-05-07 01:38 | -23.05921 | 128.26248 | 34314 ft | 452 kts | 307° |
| 2026-05-07 01:38 | -23.01785 | 128.21093 | 34317 ft | 452 kts | 307° |
| 2026-05-07 01:39 | -22.97653 | 128.15949 | 34314 ft | 452 kts | 307° |
| 2026-05-07 01:39 | -22.93519 | 128.10807 | 34313 ft | 452 kts | 307° |
| 2026-05-07 01:40 | -22.90082 | 128.06536 | 34308 ft | 452 kts | 307° |
| 2026-05-07 01:40 | -22.85948 | 128.01404 | 34309 ft | 452 kts | 307° |
| 2026-05-07 01:41 | -22.81811 | 127.96272 | 34306 ft | 452 kts | 307° |
| 2026-05-07 01:41 | -22.77675 | 127.91147 | 34305 ft | 451 kts | 307° |
| 2026-05-07 01:42 | -22.73542 | 127.86031 | 34304 ft | 451 kts | 307° |
| 2026-05-07 01:42 | -22.69405 | 127.80915 | 34298 ft | 451 kts | 307° |
| 2026-05-07 01:43 | -22.65290 | 127.75831 | 34301 ft | 451 kts | 307° |
| 2026-05-07 01:43 | -22.61146 | 127.70719 | 34303 ft | 451 kts | 307° |
| 2026-05-07 01:44 | -22.57010 | 127.65619 | 34297 ft | 450 kts | 307° |
| 2026-05-07 01:44 | -22.52876 | 127.60526 | 34298 ft | 450 kts | 307° |
| 2026-05-07 01:45 | -22.48743 | 127.55441 | 34299 ft | 450 kts | 307° |
| 2026-05-07 01:45 | -22.44602 | 127.50351 | 34296 ft | 450 kts | 307° |
| 2026-05-07 01:46 | -22.40467 | 127.45272 | 34297 ft | 450 kts | 307° |
| 2026-05-07 01:46 | -22.36335 | 127.40202 | 34295 ft | 449 kts | 307° |
| 2026-05-07 01:47 | -22.32231 | 127.35173 | 34288 ft | 449 kts | 307° |
| 2026-05-07 01:47 | -22.28095 | 127.30109 | 34294 ft | 449 kts | 307° |
| 2026-05-07 01:48 | -22.23967 | 127.25059 | 34272 ft | 449 kts | 307° |
| 2026-05-07 01:48 | -22.19835 | 127.20008 | 34284 ft | 448 kts | 307° |
| 2026-05-07 01:49 | -22.15698 | 127.14957 | 34278 ft | 448 kts | 307° |
| 2026-05-07 01:49 | -22.11567 | 127.09919 | 34277 ft | 448 kts | 307° |
| 2026-05-07 01:50 | -22.07436 | 127.04885 | 34280 ft | 448 kts | 307° |
| 2026-05-07 01:50 | -22.03328 | 126.99884 | 34275 ft | 447 kts | 307° |
| 2026-05-07 01:51 | -21.99198 | 126.94861 | 34273 ft | 447 kts | 307° |
| 2026-05-07 01:51 | -21.95069 | 126.89844 | 34277 ft | 447 kts | 307° |
| 2026-05-07 01:52 | -21.90943 | 126.84834 | 34269 ft | 447 kts | 307° |
| 2026-05-07 01:52 | -21.86812 | 126.79824 | 34272 ft | 447 kts | 307° |
| 2026-05-07 01:53 | -21.82686 | 126.74826 | 34263 ft | 446 kts | 306° |
| 2026-05-07 01:53 | -21.78558 | 126.69829 | 34265 ft | 446 kts | 306° |
| 2026-05-07 01:54 | -21.74436 | 126.64843 | 34264 ft | 446 kts | 306° |
| 2026-05-07 01:54 | -21.70308 | 126.59855 | 34261 ft | 446 kts | 306° |
| 2026-05-07 01:55 | -21.66187 | 126.54879 | 34262 ft | 445 kts | 306° |
| 2026-05-07 01:55 | -21.62062 | 126.49904 | 34252 ft | 445 kts | 306° |
| 2026-05-07 01:56 | -21.57941 | 126.44938 | 34249 ft | 445 kts | 306° |
| 2026-05-07 01:56 | -21.53823 | 126.39981 | 34246 ft | 444 kts | 306° |
| 2026-05-07 01:57 | -21.49708 | 126.35033 | 34243 ft | 444 kts | 306° |
| 2026-05-07 01:57 | -21.45590 | 126.30086 | 34249 ft | 444 kts | 306° |
| 2026-05-07 01:58 | -21.41475 | 126.25146 | 34247 ft | 444 kts | 306° |
| 2026-05-07 01:58 | -21.37383 | 126.20237 | 34239 ft | 443 kts | 306° |
| 2026-05-07 01:59 | -21.33267 | 126.15305 | 34239 ft | 443 kts | 306° |
| 2026-05-07 01:59 | -21.29157 | 126.10384 | 34239 ft | 443 kts | 306° |
| 2026-05-07 02:00 | -21.25036 | 126.05456 | 34244 ft | 443 kts | 306° |
| 2026-05-07 02:00 | -21.20921 | 126.00538 | 34225 ft | 443 kts | 306° |
| 2026-05-07 02:01 | -21.16808 | 125.95627 | 34239 ft | 443 kts | 306° |
| 2026-05-07 02:01 | -21.12698 | 125.90722 | 34237 ft | 443 kts | 306° |
| 2026-05-07 02:02 | -21.08583 | 125.85818 | 34234 ft | 443 kts | 306° |
| 2026-05-07 02:02 | -21.04463 | 125.80914 | 34232 ft | 442 kts | 306° |
| 2026-05-07 02:03 | -21.00345 | 125.76014 | 34227 ft | 442 kts | 306° |
| 2026-05-07 02:03 | -20.96223 | 125.71117 | 34231 ft | 442 kts | 306° |
| 2026-05-07 02:04 | -20.92101 | 125.66220 | 34220 ft | 443 kts | 306° |
| 2026-05-07 02:04 | -20.88002 | 125.61348 | 34225 ft | 443 kts | 306° |
| 2026-05-07 02:05 | -20.83891 | 125.56442 | 34220 ft | 443 kts | 306° |
| 2026-05-07 02:05 | -20.79774 | 125.51535 | 34223 ft | 443 kts | 305° |
| 2026-05-07 02:06 | -20.75653 | 125.46631 | 34217 ft | 443 kts | 306° |
| 2026-05-07 02:06 | -20.71525 | 125.41724 | 34216 ft | 444 kts | 305° |
| 2026-05-07 02:07 | -20.67393 | 125.36818 | 34214 ft | 444 kts | 305° |
| 2026-05-07 02:07 | -20.61215 | 125.29491 | 34211 ft | 444 kts | 305° |
| 2026-05-07 02:08 | -20.57071 | 125.24582 | 34213 ft | 445 kts | 305° |
| 2026-05-07 02:08 | -20.52924 | 125.19672 | 34211 ft | 445 kts | 305° |
| 2026-05-07 02:09 | -20.48778 | 125.14768 | 34205 ft | 445 kts | 305° |
| 2026-05-07 02:09 | -20.44620 | 125.09854 | 34203 ft | 446 kts | 305° |
| 2026-05-07 02:10 | -20.40455 | 125.04936 | 34204 ft | 447 kts | 305° |
| 2026-05-07 02:10 | -20.36285 | 125.00017 | 34196 ft | 447 kts | 305° |
| 2026-05-07 02:11 | -20.32106 | 124.95092 | 34193 ft | 448 kts | 305° |
| 2026-05-07 02:11 | -20.27953 | 124.90202 | 34193 ft | 448 kts | 305° |
| 2026-05-07 02:12 | -20.23763 | 124.85272 | 34190 ft | 449 kts | 305° |
| 2026-05-07 02:12 | -20.19574 | 124.80346 | 34191 ft | 449 kts | 305° |
| 2026-05-07 02:13 | -20.15375 | 124.75416 | 34191 ft | 450 kts | 305° |
| 2026-05-07 02:13 | -20.11169 | 124.70480 | 34187 ft | 450 kts | 305° |
| 2026-05-07 02:14 | -20.06956 | 124.65539 | 34181 ft | 451 kts | 305° |
| 2026-05-07 02:14 | -20.02735 | 124.60596 | 34189 ft | 451 kts | 305° |
| 2026-05-07 02:15 | -19.98503 | 124.55642 | 34183 ft | 452 kts | 305° |
| 2026-05-07 02:15 | -19.94274 | 124.50695 | 34179 ft | 452 kts | 305° |
| 2026-05-07 02:16 | -19.90034 | 124.45742 | 34175 ft | 453 kts | 305° |
| 2026-05-07 02:16 | -19.85791 | 124.40788 | 34175 ft | 453 kts | 305° |
| 2026-05-07 02:17 | -19.81541 | 124.35830 | 34170 ft | 454 kts | 305° |
| 2026-05-07 02:17 | -19.77293 | 124.30880 | 34166 ft | 454 kts | 305° |
| 2026-05-07 02:18 | -19.73055 | 124.25945 | 34163 ft | 454 kts | 305° |
| 2026-05-07 02:18 | -19.68794 | 124.20988 | 34156 ft | 455 kts | 305° |
| 2026-05-07 02:19 | -19.64527 | 124.16027 | 34154 ft | 455 kts | 305° |
| 2026-05-07 02:19 | -19.60257 | 124.11066 | 34153 ft | 455 kts | 305° |
| 2026-05-07 02:20 | -19.55981 | 124.06105 | 34150 ft | 456 kts | 305° |
| 2026-05-07 02:20 | -19.51700 | 124.01142 | 34146 ft | 456 kts | 305° |
| 2026-05-07 02:21 | -19.48144 | 123.97023 | 34145 ft | 456 kts | 305° |
| 2026-05-07 02:21 | -19.43159 | 123.91251 | 34150 ft | 456 kts | 305° |
| 2026-05-07 02:22 | -19.38873 | 123.86293 | 34138 ft | 456 kts | 305° |
| 2026-05-07 02:22 | -19.35284 | 123.82144 | 34151 ft | 456 kts | 305° |
| 2026-05-07 02:23 | -19.30994 | 123.77190 | 34125 ft | 457 kts | 305° |
| 2026-05-07 02:23 | -19.26718 | 123.72256 | 34138 ft | 457 kts | 305° |
| 2026-05-07 02:24 | -19.22421 | 123.67303 | 34138 ft | 457 kts | 305° |
| 2026-05-07 02:24 | -19.18113 | 123.62340 | 34131 ft | 457 kts | 305° |
| 2026-05-07 02:25 | -19.13812 | 123.57390 | 34129 ft | 457 kts | 305° |
| 2026-05-07 02:25 | -19.09498 | 123.52429 | 34124 ft | 457 kts | 305° |
| 2026-05-07 02:26 | -19.05217 | 123.47510 | 34122 ft | 457 kts | 305° |
| 2026-05-07 02:26 | -19.00907 | 123.42561 | 34121 ft | 458 kts | 305° |
| 2026-05-07 02:27 | -18.96591 | 123.37610 | 34122 ft | 458 kts | 305° |
| 2026-05-07 02:27 | -18.92278 | 123.32667 | 34120 ft | 458 kts | 305° |
| 2026-05-07 02:28 | -18.87929 | 123.27744 | 34114 ft | 459 kts | 305° |
| 2026-05-07 02:28 | -18.83553 | 123.22829 | 34115 ft | 459 kts | 305° |
| 2026-05-07 02:29 | -18.79181 | 123.17917 | 34110 ft | 459 kts | 305° |
| 2026-05-07 02:29 | -18.74810 | 123.13005 | 34105 ft | 459 kts | 305° |
| 2026-05-07 02:30 | -18.70432 | 123.08085 | 34105 ft | 459 kts | 305° |
| 2026-05-07 02:30 | -18.66055 | 123.03172 | 34102 ft | 459 kts | 305° |
| 2026-05-07 02:31 | -18.61676 | 122.98259 | 34096 ft | 459 kts | 305° |
| 2026-05-07 02:31 | -18.57323 | 122.93380 | 34093 ft | 460 kts | 305° |
| 2026-05-07 02:32 | -18.52940 | 122.88471 | 34095 ft | 460 kts | 305° |
| 2026-05-07 02:32 | -18.48552 | 122.83562 | 34090 ft | 460 kts | 305° |
| 2026-05-07 02:33 | -18.44157 | 122.78648 | 34084 ft | 460 kts | 305° |
| 2026-05-07 02:33 | -18.39768 | 122.73744 | 34084 ft | 460 kts | 305° |
| 2026-05-07 02:34 | -18.35376 | 122.68841 | 34084 ft | 460 kts | 304° |
| 2026-05-07 02:34 | -18.30983 | 122.63940 | 34073 ft | 460 kts | 304° |
| 2026-05-07 02:35 | -18.26585 | 122.59039 | 34067 ft | 460 kts | 304° |
| 2026-05-07 02:35 | -18.22191 | 122.54144 | 34065 ft | 460 kts | 304° |
| 2026-05-07 02:36 | -18.17791 | 122.49249 | 34061 ft | 460 kts | 304° |
| 2026-05-07 02:36 | -18.13388 | 122.44353 | 34059 ft | 460 kts | 304° |
| 2026-05-07 02:37 | -18.08983 | 122.39459 | 34053 ft | 461 kts | 304° |
| 2026-05-07 02:37 | -18.04578 | 122.34568 | 34047 ft | 461 kts | 304° |
| 2026-05-07 02:38 | -18.00167 | 122.29674 | 34057 ft | 461 kts | 304° |
| 2026-05-07 02:38 | -17.95819 | 122.24747 | 34056 ft | 455 kts | 300° |
| 2026-05-07 02:39 | -17.92433 | 122.19270 | 34042 ft | 443 kts | 291° |
| 2026-05-07 02:39 | -17.89515 | 122.13627 | 34051 ft | 442 kts | 290° |
| 2026-05-07 02:40 | -17.86637 | 122.07923 | 34050 ft | 442 kts | 290° |
| 2026-05-07 02:40 | -17.83743 | 122.02218 | 34052 ft | 442 kts | 290° |
| 2026-05-07 02:41 | -17.80835 | 121.96525 | 34042 ft | 442 kts | 290° |
| 2026-05-07 02:41 | -17.77920 | 121.90837 | 34046 ft | 443 kts | 290° |
| 2026-05-07 02:42 | -17.75000 | 121.85143 | 34044 ft | 443 kts | 290° |
| 2026-05-07 02:42 | -17.72078 | 121.79449 | 34042 ft | 443 kts | 290° |
| 2026-05-07 02:43 | -17.69146 | 121.73740 | 34045 ft | 444 kts | 290° |
| 2026-05-07 02:43 | -17.66214 | 121.68035 | 34040 ft | 444 kts | 290° |
| 2026-05-07 02:44 | -17.63297 | 121.62365 | 34040 ft | 445 kts | 290° |
| 2026-05-07 02:44 | -17.60339 | 121.56620 | 34037 ft | 445 kts | 290° |
| 2026-05-07 02:45 | -17.57388 | 121.50895 | 34037 ft | 446 kts | 290° |
| 2026-05-07 02:45 | -17.54460 | 121.45219 | 34036 ft | 446 kts | 290° |
| 2026-05-07 02:46 | -17.51504 | 121.39494 | 34037 ft | 447 kts | 290° |
| 2026-05-07 02:46 | -17.48542 | 121.33763 | 34033 ft | 447 kts | 290° |
| 2026-05-07 02:47 | -17.45575 | 121.28026 | 34035 ft | 448 kts | 290° |
| 2026-05-07 02:47 | -17.42603 | 121.22285 | 34037 ft | 448 kts | 290° |
| 2026-05-07 02:48 | -17.39629 | 121.16545 | 34034 ft | 449 kts | 290° |
| 2026-05-07 02:48 | -17.36648 | 121.10796 | 34031 ft | 449 kts | 290° |
| 2026-05-07 02:49 | -17.33660 | 121.05039 | 34026 ft | 450 kts | 291° |
| 2026-05-07 02:49 | -17.30668 | 120.99279 | 34039 ft | 450 kts | 291° |
| 2026-05-07 02:50 | -17.27673 | 120.93519 | 34021 ft | 451 kts | 291° |
| 2026-05-07 02:50 | -17.24671 | 120.87751 | 34029 ft | 452 kts | 291° |
| 2026-05-07 02:51 | -17.21681 | 120.82011 | 34031 ft | 452 kts | 291° |
| 2026-05-07 02:51 | -17.18667 | 120.76229 | 34029 ft | 452 kts | 291° |
| 2026-05-07 02:52 | -17.15652 | 120.70450 | 34029 ft | 453 kts | 291° |
| 2026-05-07 02:52 | -17.12626 | 120.64655 | 34030 ft | 453 kts | 291° |
| 2026-05-07 02:53 | -17.09601 | 120.58868 | 34030 ft | 454 kts | 291° |
| 2026-05-07 02:53 | -17.06572 | 120.53076 | 34026 ft | 455 kts | 291° |
| 2026-05-07 02:54 | -17.03531 | 120.47269 | 34027 ft | 455 kts | 291° |
| 2026-05-07 02:54 | -17.00486 | 120.41458 | 34024 ft | 456 kts | 291° |
| 2026-05-07 02:55 | -16.97436 | 120.35642 | 34021 ft | 456 kts | 291° |
| 2026-05-07 02:55 | -16.94399 | 120.29858 | 34021 ft | 457 kts | 291° |
| 2026-05-07 02:56 | -16.91342 | 120.24039 | 34024 ft | 457 kts | 291° |
| 2026-05-07 02:56 | -16.88281 | 120.18218 | 34028 ft | 457 kts | 291° |
| 2026-05-07 02:57 | -16.85217 | 120.12395 | 34025 ft | 457 kts | 291° |
| 2026-05-07 02:57 | -16.82153 | 120.06579 | 34024 ft | 457 kts | 291° |
| 2026-05-07 02:58 | -16.79105 | 120.00798 | 34024 ft | 457 kts | 291° |
| 2026-05-07 02:58 | -16.76017 | 119.94945 | 34022 ft | 457 kts | 291° |
| 2026-05-07 02:59 | -16.72944 | 119.89126 | 34019 ft | 458 kts | 291° |
| 2026-05-07 02:59 | -16.69869 | 119.83308 | 34020 ft | 458 kts | 291° |
| 2026-05-07 03:00 | -16.66791 | 119.77488 | 34021 ft | 458 kts | 292° |
| 2026-05-07 03:00 | -16.63727 | 119.71701 | 34019 ft | 459 kts | 291° |
| 2026-05-07 03:01 | -16.60638 | 119.65872 | 34018 ft | 459 kts | 292° |
| 2026-05-07 03:01 | -16.57544 | 119.60037 | 34017 ft | 460 kts | 292° |
| 2026-05-07 03:02 | -16.54442 | 119.54194 | 34008 ft | 460 kts | 292° |
| 2026-05-07 03:02 | -16.51858 | 119.49329 | 34016 ft | 461 kts | 292° |
| 2026-05-07 03:03 | -16.48745 | 119.43474 | 34018 ft | 461 kts | 292° |
| 2026-05-07 03:03 | -16.45636 | 119.37630 | 34013 ft | 462 kts | 292° |
| 2026-05-07 03:04 | -16.42517 | 119.31772 | 34013 ft | 462 kts | 292° |
| 2026-05-07 03:04 | -16.39396 | 119.25917 | 34008 ft | 462 kts | 292° |
| 2026-05-07 03:05 | -16.36292 | 119.20099 | 34010 ft | 463 kts | 292° |
| 2026-05-07 03:05 | -16.33166 | 119.14242 | 34010 ft | 463 kts | 292° |
| 2026-05-07 03:06 | -16.30032 | 119.08377 | 34006 ft | 463 kts | 292° |
| 2026-05-07 03:06 | -16.26897 | 119.02514 | 34006 ft | 464 kts | 292° |
| 2026-05-07 03:07 | -16.23756 | 118.96645 | 34006 ft | 464 kts | 292° |
| 2026-05-07 03:07 | -16.20613 | 118.90777 | 34006 ft | 464 kts | 292° |
| 2026-05-07 03:08 | -16.17465 | 118.84905 | 34001 ft | 464 kts | 292° |
| 2026-05-07 03:08 | -16.14314 | 118.79033 | 34005 ft | 465 kts | 292° |
| 2026-05-07 03:09 | -16.11164 | 118.73166 | 33997 ft | 465 kts | 292° |
| 2026-05-07 03:09 | -16.08025 | 118.67326 | 33995 ft | 465 kts | 292° |
| 2026-05-07 03:10 | -16.04868 | 118.61455 | 33996 ft | 465 kts | 292° |
| 2026-05-07 03:10 | -16.01705 | 118.55580 | 33993 ft | 466 kts | 292° |
| 2026-05-07 03:11 | -15.98539 | 118.49702 | 33992 ft | 466 kts | 292° |
| 2026-05-07 03:11 | -15.95369 | 118.43822 | 33993 ft | 466 kts | 292° |
| 2026-05-07 03:12 | -15.92190 | 118.37933 | 33989 ft | 467 kts | 293° |
| 2026-05-07 03:12 | -15.89009 | 118.32042 | 33988 ft | 467 kts | 293° |
| 2026-05-07 03:13 | -15.85826 | 118.26153 | 33988 ft | 467 kts | 293° |
| 2026-05-07 03:13 | -15.82641 | 118.20265 | 33987 ft | 468 kts | 293° |
| 2026-05-07 03:14 | -15.79465 | 118.14399 | 33986 ft | 468 kts | 293° |
| 2026-05-07 03:15 | -15.74674 | 118.05558 | 33989 ft | 469 kts | 293° |
| 2026-05-07 03:15 | -15.71472 | 117.99656 | 33975 ft | 469 kts | 293° |
| 2026-05-07 03:16 | -15.68266 | 117.93750 | 33985 ft | 470 kts | 293° |
| 2026-05-07 03:16 | -15.65052 | 117.87834 | 33993 ft | 470 kts | 293° |
| 2026-05-07 03:17 | -15.61833 | 117.81916 | 33978 ft | 471 kts | 293° |
| 2026-05-07 03:17 | -15.58612 | 117.75996 | 33982 ft | 471 kts | 293° |
| 2026-05-07 03:18 | -15.55382 | 117.70066 | 33984 ft | 472 kts | 293° |
| 2026-05-07 03:18 | -15.52147 | 117.64133 | 33979 ft | 472 kts | 293° |
| 2026-05-07 03:19 | -15.48932 | 117.58240 | 33983 ft | 473 kts | 294° |
| 2026-05-07 03:19 | -15.45686 | 117.52294 | 33976 ft | 473 kts | 294° |
| 2026-05-07 03:20 | -15.42444 | 117.46361 | 33983 ft | 474 kts | 294° |
| 2026-05-07 03:20 | -15.39193 | 117.40417 | 33979 ft | 474 kts | 294° |
| 2026-05-07 03:21 | -15.35936 | 117.34466 | 33985 ft | 475 kts | 294° |
| 2026-05-07 03:21 | -15.32676 | 117.28514 | 33982 ft | 475 kts | 294° |
| 2026-05-07 03:22 | -15.29425 | 117.22584 | 33983 ft | 476 kts | 294° |
| 2026-05-07 03:22 | -15.26151 | 117.16616 | 33978 ft | 476 kts | 294° |
| 2026-05-07 03:23 | -15.22873 | 117.10648 | 33981 ft | 477 kts | 294° |
| 2026-05-07 03:23 | -15.19595 | 117.04681 | 33984 ft | 477 kts | 294° |
| 2026-05-07 03:24 | -15.16309 | 116.98707 | 33978 ft | 477 kts | 294° |
| 2026-05-07 03:24 | -15.13024 | 116.92731 | 33977 ft | 478 kts | 294° |
| 2026-05-07 03:25 | -15.09734 | 116.86748 | 33980 ft | 478 kts | 294° |
| 2026-05-07 03:25 | -15.06443 | 116.80771 | 33979 ft | 478 kts | 294° |
| 2026-05-07 03:26 | -15.03167 | 116.74827 | 33978 ft | 478 kts | 294° |
| 2026-05-07 03:26 | -14.99868 | 116.68846 | 33977 ft | 479 kts | 294° |
| 2026-05-07 03:27 | -14.96565 | 116.62863 | 33975 ft | 479 kts | 294° |
| 2026-05-07 03:27 | -14.93255 | 116.56872 | 33976 ft | 479 kts | 294° |
| 2026-05-07 03:28 | -14.89947 | 116.50888 | 33974 ft | 479 kts | 294° |
| 2026-05-07 03:28 | -14.86633 | 116.44899 | 33973 ft | 479 kts | 294° |
| 2026-05-07 03:29 | -14.83315 | 116.38907 | 33975 ft | 480 kts | 294° |
| 2026-05-07 03:29 | -14.80000 | 116.32924 | 33973 ft | 480 kts | 294° |
| 2026-05-07 03:30 | -14.76703 | 116.26979 | 33975 ft | 480 kts | 294° |
| 2026-05-07 03:30 | -14.73386 | 116.21003 | 33971 ft | 480 kts | 295° |
| 2026-05-07 03:31 | -14.70064 | 116.15021 | 33972 ft | 480 kts | 295° |
| 2026-05-07 03:31 | -14.66740 | 116.09042 | 33972 ft | 480 kts | 295° |
| 2026-05-07 03:32 | -14.63416 | 116.03065 | 33971 ft | 480 kts | 295° |
| 2026-05-07 03:32 | -14.60086 | 115.97084 | 33971 ft | 480 kts | 295° |
| 2026-05-07 03:33 | -14.56759 | 115.91112 | 33975 ft | 480 kts | 295° |
| 2026-05-07 03:33 | -14.53427 | 115.85134 | 33974 ft | 480 kts | 295° |
| 2026-05-07 03:34 | -14.50096 | 115.79165 | 33971 ft | 480 kts | 295° |
| 2026-05-07 03:34 | -14.46763 | 115.73195 | 33969 ft | 480 kts | 295° |
| 2026-05-07 03:35 | -14.43428 | 115.67228 | 33972 ft | 480 kts | 295° |
| 2026-05-07 03:35 | -14.40087 | 115.61253 | 33969 ft | 480 kts | 295° |
| 2026-05-07 03:36 | -14.36749 | 115.55289 | 33970 ft | 480 kts | 295° |
| 2026-05-07 03:36 | -14.33427 | 115.49358 | 33973 ft | 480 kts | 295° |
| 2026-05-07 03:37 | -14.30080 | 115.43386 | 33970 ft | 480 kts | 295° |
| 2026-05-07 03:37 | -14.26736 | 115.37423 | 33971 ft | 481 kts | 295° |
| 2026-05-07 03:38 | -14.23385 | 115.31454 | 33971 ft | 481 kts | 295° |
| 2026-05-07 03:38 | -14.20034 | 115.25487 | 33968 ft | 481 kts | 295° |
| 2026-05-07 03:39 | -14.16679 | 115.19519 | 33967 ft | 481 kts | 295° |
| 2026-05-07 03:39 | -14.13324 | 115.13555 | 33965 ft | 481 kts | 296° |
| 2026-05-07 03:40 | -14.09957 | 115.07577 | 33970 ft | 481 kts | 296° |
| 2026-05-07 03:40 | -14.06593 | 115.01605 | 33967 ft | 482 kts | 296° |
| 2026-05-07 03:41 | -14.03228 | 114.95636 | 33970 ft | 482 kts | 296° |
| 2026-05-07 03:41 | -13.99861 | 114.89670 | 33966 ft | 482 kts | 296° |
| 2026-05-07 03:42 | -13.96514 | 114.83741 | 33964 ft | 482 kts | 296° |
| 2026-05-07 03:42 | -13.93139 | 114.77770 | 33965 ft | 482 kts | 296° |
| 2026-05-07 03:43 | -13.89762 | 114.71798 | 33975 ft | 482 kts | 296° |
| 2026-05-07 03:43 | -13.86384 | 114.65827 | 33959 ft | 483 kts | 296° |
| 2026-05-07 03:44 | -13.83002 | 114.59855 | 33974 ft | 483 kts | 296° |
| 2026-05-07 03:44 | -13.80185 | 114.54884 | 33957 ft | 483 kts | 296° |
| 2026-05-07 03:45 | -13.76800 | 114.48914 | 33975 ft | 483 kts | 296° |
| 2026-05-07 03:45 | -13.73409 | 114.42939 | 33969 ft | 484 kts | 296° |
| 2026-05-07 03:46 | -13.70008 | 114.36949 | 33966 ft | 484 kts | 296° |
| 2026-05-07 03:46 | -13.66634 | 114.31014 | 33971 ft | 484 kts | 296° |
| 2026-05-07 03:47 | -13.63236 | 114.25037 | 33965 ft | 484 kts | 296° |
| 2026-05-07 03:47 | -13.59833 | 114.19058 | 33964 ft | 484 kts | 296° |
| 2026-05-07 03:48 | -13.56432 | 114.13085 | 33966 ft | 484 kts | 296° |
| 2026-05-07 03:48 | -13.53026 | 114.07108 | 33963 ft | 485 kts | 296° |
| 2026-05-07 03:49 | -13.49611 | 114.01120 | 33962 ft | 485 kts | 296° |
| 2026-05-07 03:49 | -13.46199 | 113.95141 | 33964 ft | 485 kts | 296° |
| 2026-05-07 03:50 | -13.42782 | 113.89158 | 33961 ft | 485 kts | 296° |
| 2026-05-07 03:50 | -13.39360 | 113.83171 | 33962 ft | 486 kts | 296° |
| 2026-05-07 03:51 | -13.35930 | 113.77173 | 33963 ft | 486 kts | 296° |
| 2026-05-07 03:51 | -13.32498 | 113.71177 | 33963 ft | 486 kts | 296° |
| 2026-05-07 03:52 | -13.29088 | 113.65223 | 33963 ft | 487 kts | 296° |
| 2026-05-07 03:52 | -13.25654 | 113.59231 | 33958 ft | 487 kts | 296° |
| 2026-05-07 03:53 | -13.22214 | 113.53232 | 33959 ft | 487 kts | 296° |
| 2026-05-07 03:53 | -13.18770 | 113.47230 | 33961 ft | 488 kts | 296° |
| 2026-05-07 03:54 | -13.15322 | 113.41226 | 33957 ft | 488 kts | 296° |
| 2026-05-07 03:54 | -13.11874 | 113.35226 | 33960 ft | 488 kts | 296° |
| 2026-05-07 03:55 | -13.08423 | 113.29226 | 33961 ft | 488 kts | 296° |
| 2026-05-07 03:55 | -13.04970 | 113.23225 | 33952 ft | 489 kts | 296° |
| 2026-05-07 03:56 | -13.01510 | 113.17215 | 33958 ft | 489 kts | 296° |
| 2026-05-07 03:56 | -12.98068 | 113.11242 | 33955 ft | 489 kts | 297° |
| 2026-05-07 03:57 | -12.94605 | 113.05236 | 33957 ft | 489 kts | 297° |
| 2026-05-07 03:57 | -12.91138 | 112.99227 | 33953 ft | 490 kts | 297° |
| 2026-05-07 03:58 | -12.87666 | 112.93215 | 33954 ft | 490 kts | 297° |
| 2026-05-07 03:58 | -12.84196 | 112.87209 | 33953 ft | 490 kts | 297° |
| 2026-05-07 03:59 | -12.80716 | 112.81189 | 33955 ft | 490 kts | 297° |
| 2026-05-07 03:59 | -12.77233 | 112.75169 | 33954 ft | 491 kts | 297° |
| 2026-05-07 04:00 | -12.73773 | 112.69192 | 33958 ft | 491 kts | 297° |
| 2026-05-07 04:00 | -12.70289 | 112.63179 | 33953 ft | 491 kts | 297° |
| 2026-05-07 04:01 | -12.66802 | 112.57163 | 33953 ft | 491 kts | 297° |
| 2026-05-07 04:01 | -12.63309 | 112.51142 | 33953 ft | 492 kts | 297° |
| 2026-05-07 04:02 | -12.59814 | 112.45121 | 33951 ft | 492 kts | 297° |
| 2026-05-07 04:02 | -12.56316 | 112.39098 | 33953 ft | 492 kts | 297° |
| 2026-05-07 04:03 | -12.52815 | 112.33075 | 33953 ft | 492 kts | 297° |
| 2026-05-07 04:03 | -12.49306 | 112.27041 | 33954 ft | 492 kts | 297° |
| 2026-05-07 04:04 | -12.45798 | 112.21014 | 33948 ft | 493 kts | 297° |
| 2026-05-07 04:04 | -12.42288 | 112.14986 | 33950 ft | 493 kts | 297° |
| 2026-05-07 04:05 | -12.38800 | 112.09002 | 33948 ft | 493 kts | 297° |
| 2026-05-07 04:05 | -12.35285 | 112.02973 | 33952 ft | 493 kts | 297° |
| 2026-05-07 04:06 | -12.31771 | 111.96951 | 33948 ft | 493 kts | 297° |
| 2026-05-07 04:06 | -12.28252 | 111.90924 | 33945 ft | 493 kts | 297° |
| 2026-05-07 04:07 | -12.24737 | 111.84908 | 33947 ft | 493 kts | 297° |
| 2026-05-07 04:07 | -12.21218 | 111.78890 | 33949 ft | 492 kts | 297° |
| 2026-05-07 04:08 | -12.17705 | 111.72884 | 33947 ft | 492 kts | 298° |
| 2026-05-07 04:08 | -12.14186 | 111.66872 | 33945 ft | 492 kts | 298° |
| 2026-05-07 04:09 | -12.10689 | 111.60903 | 33946 ft | 492 kts | 298° |
| 2026-05-07 04:09 | -12.07167 | 111.54892 | 33948 ft | 492 kts | 298° |
| 2026-05-07 04:10 | -12.03645 | 111.48887 | 33946 ft | 492 kts | 298° |
| 2026-05-07 04:10 | -12.00069 | 111.42911 | 33944 ft | 494 kts | 302° |
| 2026-05-07 04:11 | -11.96018 | 111.37224 | 33942 ft | 496 kts | 303° |
| 2026-05-07 04:11 | -11.91874 | 111.31598 | 33936 ft | 496 kts | 304° |
| 2026-05-07 04:12 | -11.87709 | 111.25972 | 33940 ft | 496 kts | 304° |
| 2026-05-07 04:12 | -11.83552 | 111.20343 | 33942 ft | 496 kts | 304° |
| 2026-05-07 04:13 | -11.79397 | 111.14712 | 33944 ft | 497 kts | 304° |
| 2026-05-07 04:13 | -11.75239 | 111.09076 | 33941 ft | 497 kts | 304° |
| 2026-05-07 04:14 | -11.71100 | 111.03471 | 33941 ft | 497 kts | 304° |
| 2026-05-07 04:14 | -11.66936 | 110.97834 | 33942 ft | 497 kts | 304° |
| 2026-05-07 04:15 | -11.62772 | 110.92201 | 33942 ft | 497 kts | 304° |
| 2026-05-07 04:15 | -11.58604 | 110.86566 | 33939 ft | 498 kts | 304° |
| 2026-05-07 04:16 | -11.54431 | 110.80927 | 33942 ft | 498 kts | 304° |
| 2026-05-07 04:16 | -11.50250 | 110.75281 | 33938 ft | 498 kts | 304° |
| 2026-05-07 04:17 | -11.46064 | 110.69631 | 33939 ft | 499 kts | 304° |
| 2026-05-07 04:17 | -11.41878 | 110.63983 | 33938 ft | 499 kts | 304° |
| 2026-05-07 04:18 | -11.37713 | 110.58368 | 33937 ft | 499 kts | 304° |
| 2026-05-07 04:18 | -11.33523 | 110.52723 | 33939 ft | 499 kts | 304° |
| 2026-05-07 04:19 | -11.29332 | 110.47079 | 33936 ft | 499 kts | 304° |
| 2026-05-07 04:19 | -11.25139 | 110.41434 | 33935 ft | 500 kts | 305° |
| 2026-05-07 04:20 | -11.20938 | 110.35783 | 33937 ft | 500 kts | 305° |
| 2026-05-07 04:20 | -11.16741 | 110.30141 | 33937 ft | 500 kts | 305° |
| 2026-05-07 04:21 | -11.10438 | 110.21670 | 33934 ft | 500 kts | 305° |
| 2026-05-07 04:21 | -11.06258 | 110.16058 | 33935 ft | 500 kts | 305° |
| 2026-05-07 04:22 | -11.02053 | 110.10416 | 33933 ft | 500 kts | 305° |
| 2026-05-07 04:22 | -10.97845 | 110.04772 | 33931 ft | 500 kts | 305° |
| 2026-05-07 04:23 | -10.93645 | 109.99143 | 33933 ft | 500 kts | 305° |
| 2026-05-07 04:23 | -10.89440 | 109.93506 | 33935 ft | 499 kts | 305° |
| 2026-05-07 04:24 | -10.85234 | 109.87873 | 33933 ft | 499 kts | 305° |
| 2026-05-07 04:24 | -10.81026 | 109.82241 | 33930 ft | 499 kts | 305° |
| 2026-05-07 04:25 | -10.76825 | 109.76621 | 33929 ft | 499 kts | 305° |
| 2026-05-07 04:25 | -10.72646 | 109.71034 | 33930 ft | 499 kts | 305° |
| 2026-05-07 04:26 | -10.68445 | 109.65421 | 33929 ft | 498 kts | 305° |
| 2026-05-07 04:26 | -10.64924 | 109.60717 | 33931 ft | 500 kts | 305° |
| 2026-05-07 04:27 | -10.60729 | 109.55115 | 33926 ft | 502 kts | 305° |
| 2026-05-07 04:27 | -10.56493 | 109.49461 | 33925 ft | 502 kts | 305° |
| 2026-05-07 04:28 | -10.52254 | 109.43804 | 33925 ft | 502 kts | 305° |
| 2026-05-07 04:28 | -10.48013 | 109.38151 | 33927 ft | 502 kts | 305° |
| 2026-05-07 04:29 | -10.43773 | 109.32500 | 33928 ft | 502 kts | 305° |
| 2026-05-07 04:29 | -10.39533 | 109.26855 | 33924 ft | 503 kts | 305° |
| 2026-05-07 04:30 | -10.35287 | 109.21206 | 33926 ft | 502 kts | 305° |
| 2026-05-07 04:30 | -10.31045 | 109.15564 | 33923 ft | 502 kts | 305° |
| 2026-05-07 04:31 | -10.26804 | 109.09925 | 33923 ft | 503 kts | 305° |
| 2026-05-07 04:31 | -10.22555 | 109.04279 | 33921 ft | 503 kts | 305° |
| 2026-05-07 04:32 | -10.18307 | 108.98636 | 33920 ft | 503 kts | 305° |
| 2026-05-07 04:32 | -10.14085 | 108.93031 | 33919 ft | 503 kts | 305° |
| 2026-05-07 04:33 | -10.09831 | 108.87386 | 33918 ft | 503 kts | 305° |
| 2026-05-07 04:33 | -10.05580 | 108.81742 | 33920 ft | 503 kts | 305° |
| 2026-05-07 04:34 | -10.01326 | 108.76101 | 33915 ft | 503 kts | 305° |
| 2026-05-07 04:34 | -9.97072 | 108.70468 | 33918 ft | 503 kts | 305° |
| 2026-05-07 04:35 | -9.92819 | 108.64833 | 33915 ft | 503 kts | 306° |
| 2026-05-07 04:35 | -9.88556 | 108.59190 | 33913 ft | 503 kts | 305° |
| 2026-05-07 04:36 | -9.84303 | 108.53564 | 33911 ft | 503 kts | 306° |
| 2026-05-07 04:36 | -9.80073 | 108.47972 | 33916 ft | 502 kts | 305° |
| 2026-05-07 04:37 | -9.75818 | 108.42345 | 33912 ft | 502 kts | 305° |
| 2026-05-07 04:37 | -9.71560 | 108.36718 | 33911 ft | 502 kts | 306° |
| 2026-05-07 04:38 | -9.67314 | 108.31111 | 33911 ft | 502 kts | 306° |
| 2026-05-07 04:38 | -9.63056 | 108.25488 | 33912 ft | 502 kts | 306° |
| 2026-05-07 04:39 | -9.58800 | 108.19872 | 33908 ft | 502 kts | 306° |
| 2026-05-07 04:39 | -9.54546 | 108.14261 | 33906 ft | 502 kts | 306° |
| 2026-05-07 04:40 | -9.50287 | 108.08646 | 33907 ft | 502 kts | 306° |
| 2026-05-07 04:40 | -9.46024 | 108.03031 | 33906 ft | 503 kts | 306° |
| 2026-05-07 04:41 | -9.41757 | 107.97414 | 33909 ft | 503 kts | 306° |
| 2026-05-07 04:41 | -9.37489 | 107.91793 | 33906 ft | 503 kts | 306° |
| 2026-05-07 04:42 | -9.33218 | 107.86173 | 33905 ft | 503 kts | 306° |
| 2026-05-07 04:42 | -9.28974 | 107.80584 | 33905 ft | 504 kts | 306° |
| 2026-05-07 04:43 | -9.24700 | 107.74958 | 33902 ft | 504 kts | 306° |
| 2026-05-07 04:43 | -9.20421 | 107.69326 | 33903 ft | 504 kts | 306° |
| 2026-05-07 04:44 | -9.16139 | 107.63704 | 33903 ft | 504 kts | 306° |
| 2026-05-07 04:44 | -9.11848 | 107.58079 | 33900 ft | 505 kts | 306° |
| 2026-05-07 04:45 | -9.07564 | 107.52446 | 33901 ft | 505 kts | 306° |
| 2026-05-07 04:45 | -9.03277 | 107.46808 | 33898 ft | 505 kts | 306° |
| 2026-05-07 04:46 | -8.98983 | 107.41177 | 33897 ft | 506 kts | 306° |
| 2026-05-07 04:46 | -8.94679 | 107.35534 | 33899 ft | 506 kts | 306° |
| 2026-05-07 04:47 | -8.90377 | 107.29900 | 33897 ft | 506 kts | 307° |
| 2026-05-07 04:47 | -8.86092 | 107.24288 | 33901 ft | 507 kts | 307° |
| 2026-05-07 04:48 | -8.81785 | 107.18646 | 33895 ft | 507 kts | 307° |
| 2026-05-07 04:48 | -8.77474 | 107.12996 | 33892 ft | 507 kts | 307° |
| 2026-05-07 04:49 | -8.73155 | 107.07344 | 33890 ft | 508 kts | 307° |
| 2026-05-07 04:49 | -8.68834 | 107.01692 | 33893 ft | 508 kts | 307° |
| 2026-05-07 04:50 | -8.64504 | 106.96031 | 33894 ft | 509 kts | 307° |
| 2026-05-07 04:50 | -8.60169 | 106.90365 | 33890 ft | 510 kts | 307° |
| 2026-05-07 04:51 | -8.55831 | 106.84698 | 33887 ft | 510 kts | 307° |
| 2026-05-07 04:51 | -8.51484 | 106.79022 | 33888 ft | 510 kts | 307° |
| 2026-05-07 04:52 | -8.47138 | 106.73349 | 33885 ft | 511 kts | 307° |
| 2026-05-07 04:52 | -8.42787 | 106.67673 | 33887 ft | 511 kts | 307° |
| 2026-05-07 04:53 | -8.38432 | 106.61993 | 33886 ft | 511 kts | 307° |
| 2026-05-07 04:53 | -8.34081 | 106.56322 | 33888 ft | 510 kts | 307° |
| 2026-05-07 04:54 | -8.29754 | 106.50681 | 33885 ft | 511 kts | 307° |
| 2026-05-07 04:54 | -8.27581 | 106.47851 | 34073 ft | 509 kts | 307° |
| 2026-05-07 04:54 | -8.25424 | 106.45042 | 34451 ft | 504 kts | 307° |
| 2026-05-07 04:55 | -8.23283 | 106.42254 | 34793 ft | 501 kts | 307° |
| 2026-05-07 04:55 | -8.21149 | 106.39476 | 35066 ft | 500 kts | 307° |
| 2026-05-07 04:55 | -8.19021 | 106.36706 | 35297 ft | 499 kts | 307° |
| 2026-05-07 04:55 | -8.16894 | 106.33940 | 35510 ft | 498 kts | 307° |
| 2026-05-07 04:56 | -8.14757 | 106.31189 | 35743 ft | 497 kts | 308° |
| 2026-05-07 04:56 | -8.12584 | 106.28461 | 35860 ft | 499 kts | 308° |
| 2026-05-07 04:56 | -8.08162 | 106.22990 | 35882 ft | 504 kts | 308° |
| 2026-05-07 04:57 | -8.03739 | 106.17512 | 35883 ft | 503 kts | 308° |
| 2026-05-07 04:57 | -7.99323 | 106.12019 | 35885 ft | 503 kts | 308° |
| 2026-05-07 04:58 | -7.94920 | 106.06531 | 35886 ft | 503 kts | 308° |
| 2026-05-07 04:58 | -7.90539 | 106.01073 | 35888 ft | 503 kts | 309° |
| 2026-05-07 04:59 | -7.86132 | 105.95586 | 35883 ft | 503 kts | 309° |
| 2026-05-07 04:59 | -7.81720 | 105.90096 | 35879 ft | 504 kts | 309° |
| 2026-05-07 05:00 | -7.77309 | 105.84608 | 35881 ft | 504 kts | 309° |
| 2026-05-07 05:00 | -7.72894 | 105.79117 | 35882 ft | 504 kts | 309° |
| 2026-05-07 05:01 | -7.68472 | 105.73620 | 35881 ft | 505 kts | 309° |
| 2026-05-07 05:01 | -7.64043 | 105.68116 | 35883 ft | 505 kts | 309° |
| 2026-05-07 05:02 | -7.59612 | 105.62611 | 35883 ft | 506 kts | 309° |
| 2026-05-07 05:02 | -7.55173 | 105.57100 | 35884 ft | 507 kts | 309° |
| 2026-05-07 05:03 | -7.50724 | 105.51577 | 35884 ft | 507 kts | 309° |
| 2026-05-07 05:03 | -7.46273 | 105.46052 | 35881 ft | 508 kts | 309° |
| 2026-05-07 05:04 | -7.41845 | 105.40558 | 35881 ft | 508 kts | 310° |
| 2026-05-07 05:04 | -7.37382 | 105.35023 | 35881 ft | 509 kts | 310° |
| 2026-05-07 05:05 | -7.32909 | 105.29479 | 35881 ft | 510 kts | 310° |
| 2026-05-07 05:05 | -7.28434 | 105.23936 | 35884 ft | 509 kts | 310° |
| 2026-05-07 05:06 | -7.24112 | 105.18275 | 35882 ft | 510 kts | 307° |
| 2026-05-07 05:06 | -7.20628 | 105.13473 | 35881 ft | 510 kts | 307° |
| 2026-05-07 05:07 | -7.15739 | 105.06771 | 35881 ft | 510 kts | 307° |
| 2026-05-07 05:07 | -7.11506 | 105.01041 | 35878 ft | 509 kts | 307° |
| 2026-05-07 05:08 | -7.07954 | 104.96254 | 35880 ft | 509 kts | 307° |
| 2026-05-07 05:08 | -7.03710 | 104.90540 | 35883 ft | 509 kts | 307° |
| 2026-05-07 05:09 | -6.99472 | 104.84829 | 35881 ft | 509 kts | 307° |
| 2026-05-07 05:09 | -6.95230 | 104.79114 | 35881 ft | 509 kts | 307° |
| 2026-05-07 05:10 | -6.90989 | 104.73404 | 35881 ft | 509 kts | 307° |
| 2026-05-07 05:10 | -6.86775 | 104.67730 | 35881 ft | 509 kts | 307° |
| 2026-05-07 05:11 | -6.82531 | 104.62019 | 35881 ft | 509 kts | 307° |
| 2026-05-07 05:11 | -6.78292 | 104.56318 | 35878 ft | 509 kts | 307° |
| 2026-05-07 05:12 | -6.74054 | 104.50617 | 35876 ft | 508 kts | 307° |
| 2026-05-07 05:12 | -6.69823 | 104.44929 | 35875 ft | 507 kts | 307° |
| 2026-05-07 05:13 | -6.65599 | 104.39253 | 35875 ft | 506 kts | 307° |
| 2026-05-07 05:13 | -6.61376 | 104.33579 | 35878 ft | 505 kts | 308° |
| 2026-05-07 05:14 | -6.57164 | 104.27923 | 35877 ft | 505 kts | 308° |
| 2026-05-07 05:14 | -6.52957 | 104.22276 | 35876 ft | 504 kts | 308° |
| 2026-05-07 05:15 | -6.48756 | 104.16639 | 35873 ft | 503 kts | 307° |
| 2026-05-07 05:15 | -6.44552 | 104.10997 | 35862 ft | 504 kts | 307° |
| 2026-05-07 05:16 | -6.40349 | 104.05360 | 35876 ft | 504 kts | 308° |
| 2026-05-07 05:16 | -6.36146 | 103.99723 | 35871 ft | 504 kts | 307° |
| 2026-05-07 05:17 | -6.31934 | 103.94075 | 35869 ft | 505 kts | 308° |
| 2026-05-07 05:17 | -6.27745 | 103.88464 | 35870 ft | 505 kts | 308° |
| 2026-05-07 05:18 | -6.23498 | 103.82776 | 35870 ft | 505 kts | 308° |
| 2026-05-07 05:18 | -6.19298 | 103.77152 | 35871 ft | 506 kts | 308° |
| 2026-05-07 05:19 | -6.15076 | 103.71496 | 35866 ft | 506 kts | 308° |
| 2026-05-07 05:19 | -6.10855 | 103.65845 | 35864 ft | 506 kts | 308° |
| 2026-05-07 05:20 | -6.06630 | 103.60195 | 35866 ft | 505 kts | 307° |
| 2026-05-07 05:20 | -6.02402 | 103.54540 | 35865 ft | 505 kts | 307° |
| 2026-05-07 05:21 | -5.96070 | 103.46074 | 35862 ft | 505 kts | 307° |
| 2026-05-07 05:22 | -5.91875 | 103.40467 | 35861 ft | 505 kts | 307° |
| 2026-05-07 05:22 | -5.87657 | 103.34831 | 35863 ft | 504 kts | 307° |
| 2026-05-07 05:23 | -5.83436 | 103.29199 | 35859 ft | 504 kts | 307° |
| 2026-05-07 05:23 | -5.79220 | 103.23565 | 35860 ft | 504 kts | 307° |
| 2026-05-07 05:24 | -5.75000 | 103.17926 | 35859 ft | 505 kts | 307° |
| 2026-05-07 05:24 | -5.70772 | 103.12282 | 35860 ft | 505 kts | 307° |
| 2026-05-07 05:25 | -5.66542 | 103.06637 | 35857 ft | 506 kts | 307° |
| 2026-05-07 05:25 | -5.62306 | 103.00987 | 35856 ft | 507 kts | 307° |
| 2026-05-07 05:26 | -5.58060 | 102.95323 | 35857 ft | 508 kts | 307° |
| 2026-05-07 05:26 | -5.53807 | 102.89651 | 35858 ft | 508 kts | 307° |
| 2026-05-07 05:27 | -5.49553 | 102.83981 | 35856 ft | 508 kts | 307° |
| 2026-05-07 05:27 | -5.45299 | 102.78313 | 35857 ft | 508 kts | 307° |
| 2026-05-07 05:28 | -5.41068 | 102.72676 | 35856 ft | 509 kts | 307° |
| 2026-05-07 05:28 | -5.36802 | 102.66994 | 35857 ft | 510 kts | 307° |
| 2026-05-07 05:29 | -5.32528 | 102.61302 | 35857 ft | 510 kts | 307° |
| 2026-05-07 05:29 | -5.28255 | 102.55614 | 35853 ft | 510 kts | 307° |
| 2026-05-07 05:30 | -5.23988 | 102.49936 | 35854 ft | 509 kts | 307° |
| 2026-05-07 05:30 | -5.19727 | 102.44268 | 35854 ft | 508 kts | 307° |
| 2026-05-07 05:31 | -5.15475 | 102.38612 | 35854 ft | 507 kts | 307° |
| 2026-05-07 05:31 | -5.11234 | 102.32972 | 35853 ft | 506 kts | 307° |
| 2026-05-07 05:32 | -5.07003 | 102.27347 | 35852 ft | 504 kts | 307° |
| 2026-05-07 05:32 | -5.02781 | 102.21737 | 35854 ft | 502 kts | 307° |
| 2026-05-07 05:33 | -4.98577 | 102.16152 | 35856 ft | 501 kts | 307° |
| 2026-05-07 05:33 | -4.94381 | 102.10577 | 35853 ft | 500 kts | 307° |
| 2026-05-07 05:34 | -4.90191 | 102.05010 | 35853 ft | 500 kts | 307° |
| 2026-05-07 05:34 | -4.86021 | 101.99473 | 35854 ft | 501 kts | 307° |
| 2026-05-07 05:35 | -4.81810 | 101.93882 | 35853 ft | 502 kts | 307° |
| 2026-05-07 05:35 | -4.77596 | 101.88290 | 35855 ft | 503 kts | 307° |
| 2026-05-07 05:36 | -4.73368 | 101.82680 | 35856 ft | 504 kts | 307° |
| 2026-05-07 05:36 | -4.69131 | 101.77060 | 35855 ft | 506 kts | 307° |
| 2026-05-07 05:37 | -4.64881 | 101.71422 | 35853 ft | 507 kts | 307° |
| 2026-05-07 05:37 | -4.60629 | 101.65784 | 35854 ft | 508 kts | 307° |
| 2026-05-07 05:38 | -4.56369 | 101.60136 | 35855 ft | 508 kts | 307° |
| 2026-05-07 05:38 | -4.52106 | 101.54486 | 35854 ft | 508 kts | 307° |
| 2026-05-07 05:39 | -4.47844 | 101.48838 | 35854 ft | 508 kts | 307° |
| 2026-05-07 05:39 | -4.43580 | 101.43188 | 35856 ft | 508 kts | 307° |
| 2026-05-07 05:40 | -4.39345 | 101.37578 | 35850 ft | 508 kts | 307° |
| 2026-05-07 05:40 | -4.35080 | 101.31930 | 35851 ft | 508 kts | 307° |
| 2026-05-07 05:41 | -4.30807 | 101.26273 | 35851 ft | 508 kts | 307° |
| 2026-05-07 05:41 | -4.26535 | 101.20617 | 35850 ft | 508 kts | 307° |
| 2026-05-07 05:42 | -4.22265 | 101.14966 | 35848 ft | 508 kts | 307° |
| 2026-05-07 05:42 | -4.17994 | 101.09314 | 35853 ft | 509 kts | 307° |
| 2026-05-07 05:43 | -4.13721 | 101.03661 | 35849 ft | 509 kts | 307° |
| 2026-05-07 05:43 | -4.09470 | 100.98039 | 35851 ft | 509 kts | 307° |
| 2026-05-07 05:44 | -4.05197 | 100.92388 | 35850 ft | 509 kts | 307° |
| 2026-05-07 05:44 | -4.00920 | 100.86734 | 35851 ft | 509 kts | 307° |
| 2026-05-07 05:45 | -3.96647 | 100.81086 | 35850 ft | 508 kts | 307° |
| 2026-05-07 05:45 | -3.92379 | 100.75443 | 35851 ft | 508 kts | 307° |
| 2026-05-07 05:46 | -3.88109 | 100.69800 | 35852 ft | 508 kts | 307° |
| 2026-05-07 05:46 | -3.83839 | 100.64160 | 35850 ft | 508 kts | 308° |
| 2026-05-07 05:47 | -3.79570 | 100.58522 | 35852 ft | 508 kts | 307° |
| 2026-05-07 05:47 | -3.75304 | 100.52888 | 35849 ft | 508 kts | 308° |
| 2026-05-07 05:48 | -3.71027 | 100.47240 | 35848 ft | 508 kts | 307° |
| 2026-05-07 05:48 | -3.66780 | 100.41633 | 35849 ft | 508 kts | 307° |
| 2026-05-07 05:49 | -3.62508 | 100.35994 | 35848 ft | 508 kts | 308° |
| 2026-05-07 05:49 | -3.58957 | 100.31308 | 35849 ft | 508 kts | 308° |
| 2026-05-07 05:50 | -3.54688 | 100.25674 | 35848 ft | 508 kts | 308° |
| 2026-05-07 05:50 | -3.50418 | 100.20042 | 35849 ft | 508 kts | 308° |
| 2026-05-07 05:51 | -3.46143 | 100.14404 | 35851 ft | 508 kts | 308° |
| 2026-05-07 05:51 | -3.41872 | 100.08771 | 35852 ft | 508 kts | 307° |
| 2026-05-07 05:52 | -3.37598 | 100.03134 | 35855 ft | 508 kts | 307° |
| 2026-05-07 05:52 | -3.33317 | 99.97490 | 35849 ft | 508 kts | 308° |
| 2026-05-07 05:53 | -3.29071 | 99.91894 | 35852 ft | 508 kts | 308° |
| 2026-05-07 05:53 | -3.24790 | 99.86252 | 35851 ft | 508 kts | 307° |
| 2026-05-07 05:54 | -3.20516 | 99.80619 | 35850 ft | 508 kts | 307° |
| 2026-05-07 05:54 | -3.16237 | 99.74982 | 35851 ft | 508 kts | 307° |
| 2026-05-07 05:55 | -3.11961 | 99.69348 | 35851 ft | 508 kts | 307° |
| 2026-05-07 05:55 | -3.07683 | 99.63713 | 35852 ft | 509 kts | 308° |
| 2026-05-07 05:56 | -3.03400 | 99.58073 | 35851 ft | 509 kts | 308° |
| 2026-05-07 05:56 | -2.99112 | 99.52427 | 35850 ft | 509 kts | 308° |
| 2026-05-07 05:57 | -2.94817 | 99.46771 | 35852 ft | 510 kts | 308° |
| 2026-05-07 05:57 | -2.90528 | 99.41125 | 35850 ft | 510 kts | 308° |
| 2026-05-07 05:58 | -2.86256 | 99.35503 | 35852 ft | 510 kts | 308° |
| 2026-05-07 05:58 | -2.81956 | 99.29844 | 35852 ft | 511 kts | 308° |
| 2026-05-07 05:59 | -2.77655 | 99.24185 | 35854 ft | 511 kts | 308° |
| 2026-05-07 05:59 | -2.73345 | 99.18515 | 35856 ft | 512 kts | 308° |
| 2026-05-07 06:00 | -2.69036 | 99.12847 | 35853 ft | 512 kts | 308° |
| 2026-05-07 06:00 | -2.64723 | 99.07174 | 35854 ft | 512 kts | 308° |
| 2026-05-07 06:01 | -2.60410 | 99.01502 | 35853 ft | 512 kts | 308° |
| 2026-05-07 06:01 | -2.56096 | 98.95828 | 35858 ft | 512 kts | 308° |
| 2026-05-07 06:02 | -2.51784 | 98.90159 | 35857 ft | 512 kts | 308° |
| 2026-05-07 06:02 | -2.47495 | 98.84520 | 35852 ft | 512 kts | 308° |
| 2026-05-07 06:03 | -2.43176 | 98.78843 | 35855 ft | 512 kts | 308° |
| 2026-05-07 06:03 | -2.38859 | 98.73170 | 35855 ft | 512 kts | 308° |
| 2026-05-07 06:04 | -2.34541 | 98.67494 | 35856 ft | 512 kts | 308° |
| 2026-05-07 06:04 | -2.30222 | 98.61819 | 35853 ft | 512 kts | 308° |
| 2026-05-07 06:05 | -2.25903 | 98.56144 | 35854 ft | 512 kts | 308° |
| 2026-05-07 06:05 | -2.21590 | 98.50478 | 35855 ft | 512 kts | 308° |
| 2026-05-07 06:06 | -2.17272 | 98.44805 | 35856 ft | 512 kts | 308° |
| 2026-05-07 06:06 | -2.12956 | 98.39137 | 35853 ft | 512 kts | 308° |
| 2026-05-07 06:07 | -2.08662 | 98.33498 | 35852 ft | 512 kts | 308° |
| 2026-05-07 06:07 | -2.04340 | 98.27823 | 35856 ft | 512 kts | 308° |
| 2026-05-07 06:08 | -2.00025 | 98.22157 | 35853 ft | 512 kts | 308° |
| 2026-05-07 06:08 | -1.95711 | 98.16492 | 35855 ft | 512 kts | 308° |
| 2026-05-07 06:09 | -1.91395 | 98.10827 | 35853 ft | 512 kts | 308° |
| 2026-05-07 06:09 | -1.87072 | 98.05152 | 35858 ft | 512 kts | 308° |
| 2026-05-07 06:10 | -1.82745 | 97.99473 | 35857 ft | 513 kts | 308° |
| 2026-05-07 06:10 | -1.78449 | 97.93836 | 35858 ft | 513 kts | 308° |
| 2026-05-07 06:11 | -1.74100 | 97.88128 | 35861 ft | 513 kts | 308° |
| 2026-05-07 06:11 | -1.69774 | 97.82450 | 35858 ft | 513 kts | 308° |
| 2026-05-07 06:12 | -1.65473 | 97.76808 | 35859 ft | 514 kts | 308° |
| 2026-05-07 06:12 | -1.61141 | 97.71125 | 35861 ft | 513 kts | 308° |
| 2026-05-07 06:13 | -1.56778 | 97.65473 | 35860 ft | 513 kts | 309° |
| 2026-05-07 06:13 | -1.52254 | 97.59965 | 35862 ft | 513 kts | 310° |
| 2026-05-07 06:14 | -1.47700 | 97.54469 | 35862 ft | 513 kts | 310° |
| 2026-05-07 06:14 | -1.43176 | 97.48959 | 35863 ft | 512 kts | 310° |
| 2026-05-07 06:15 | -1.38674 | 97.43445 | 35861 ft | 512 kts | 310° |
| 2026-05-07 06:15 | -1.34172 | 97.37926 | 35864 ft | 512 kts | 310° |
| 2026-05-07 06:16 | -1.29672 | 97.32410 | 35862 ft | 512 kts | 310° |
| 2026-05-07 06:16 | -1.25174 | 97.26900 | 35861 ft | 512 kts | 310° |
| 2026-05-07 06:17 | -1.20673 | 97.21387 | 35862 ft | 512 kts | 310° |
| 2026-05-07 06:17 | -1.16165 | 97.15866 | 35859 ft | 512 kts | 310° |
| 2026-05-07 06:18 | -1.11658 | 97.10347 | 35859 ft | 512 kts | 310° |
| 2026-05-07 06:18 | -1.07176 | 97.04857 | 35859 ft | 513 kts | 310° |
| 2026-05-07 06:19 | -1.02669 | 96.99337 | 35855 ft | 513 kts | 310° |
| 2026-05-07 06:19 | -0.98148 | 96.93800 | 35855 ft | 513 kts | 310° |
| 2026-05-07 06:20 | -0.93632 | 96.88270 | 35856 ft | 514 kts | 310° |
| 2026-05-07 06:20 | -0.89112 | 96.82736 | 35841 ft | 514 kts | 310° |
| 2026-05-07 06:21 | -0.84590 | 96.77200 | 35862 ft | 514 kts | 310° |
| 2026-05-07 06:21 | -0.80067 | 96.71661 | 35843 ft | 514 kts | 310° |
| 2026-05-07 06:22 | -0.75545 | 96.66125 | 35860 ft | 514 kts | 310° |
| 2026-05-07 06:22 | -0.68755 | 96.57812 | 35851 ft | 515 kts | 310° |
| 2026-05-07 06:23 | -0.64227 | 96.52269 | 35865 ft | 515 kts | 310° |
| 2026-05-07 06:23 | -0.59700 | 96.46727 | 35864 ft | 515 kts | 310° |
| 2026-05-07 06:24 | -0.55168 | 96.41179 | 35852 ft | 515 kts | 310° |
| 2026-05-07 06:24 | -0.50635 | 96.35631 | 35851 ft | 515 kts | 310° |
| 2026-05-07 06:25 | -0.46095 | 96.30074 | 35867 ft | 516 kts | 310° |
| 2026-05-07 06:25 | -0.41561 | 96.24523 | 35850 ft | 516 kts | 310° |
| 2026-05-07 06:26 | -0.37023 | 96.18969 | 35868 ft | 516 kts | 310° |
| 2026-05-07 06:26 | -0.32486 | 96.13416 | 35853 ft | 516 kts | 310° |
| 2026-05-07 06:27 | -0.27984 | 96.07906 | 35852 ft | 515 kts | 310° |
| 2026-05-07 06:27 | -0.23444 | 96.02348 | 35856 ft | 515 kts | 310° |
| 2026-05-07 06:28 | -0.18917 | 95.96808 | 35854 ft | 515 kts | 310° |
| 2026-05-07 06:28 | -0.14385 | 95.91260 | 35853 ft | 515 kts | 310° |
| 2026-05-07 06:29 | -0.09850 | 95.85710 | 35869 ft | 515 kts | 310° |
| 2026-05-07 06:29 | -0.05322 | 95.80168 | 35857 ft | 515 kts | 310° |
| 2026-05-07 06:30 | -0.00807 | 95.74643 | 35851 ft | 515 kts | 310° |
| 2026-05-07 06:30 | 0.02963 | 95.70029 | 35853 ft | 515 kts | 310° |
| 2026-05-07 06:31 | 0.07495 | 95.64481 | 35856 ft | 515 kts | 310° |
| 2026-05-07 06:31 | 0.12030 | 95.58931 | 35852 ft | 515 kts | 310° |
| 2026-05-07 06:32 | 0.16565 | 95.53381 | 35868 ft | 516 kts | 310° |
| 2026-05-07 06:32 | 0.21102 | 95.47828 | 35856 ft | 516 kts | 310° |
| 2026-05-07 06:33 | 0.25638 | 95.42275 | 35858 ft | 516 kts | 310° |
| 2026-05-07 06:33 | 0.30174 | 95.36723 | 35851 ft | 516 kts | 310° |
| 2026-05-07 06:34 | 0.34709 | 95.31171 | 35851 ft | 516 kts | 310° |
| 2026-05-07 06:34 | 0.39246 | 95.25618 | 35855 ft | 515 kts | 310° |
| 2026-05-07 06:35 | 0.43781 | 95.20067 | 35858 ft | 515 kts | 310° |
| 2026-05-07 06:35 | 0.48313 | 95.14520 | 35853 ft | 514 kts | 310° |
| 2026-05-07 06:36 | 0.52841 | 95.08977 | 35853 ft | 514 kts | 310° |
| 2026-05-07 06:36 | 0.57335 | 95.03475 | 35857 ft | 514 kts | 310° |
| 2026-05-07 06:37 | 0.61864 | 94.97932 | 35851 ft | 514 kts | 310° |
| 2026-05-07 06:37 | 0.66393 | 94.92387 | 35851 ft | 514 kts | 310° |
| 2026-05-07 06:38 | 0.70917 | 94.86849 | 35848 ft | 514 kts | 310° |
| 2026-05-07 06:38 | 0.75436 | 94.81316 | 35849 ft | 514 kts | 310° |
| 2026-05-07 06:39 | 0.79956 | 94.75782 | 35850 ft | 514 kts | 310° |
| 2026-05-07 06:39 | 0.84484 | 94.70238 | 35847 ft | 514 kts | 310° |
| 2026-05-07 06:40 | 0.88980 | 94.64734 | 35855 ft | 514 kts | 310° |
| 2026-05-07 06:40 | 0.93505 | 94.59193 | 35854 ft | 514 kts | 310° |
| 2026-05-07 06:41 | 0.98031 | 94.53654 | 35850 ft | 514 kts | 310° |
| 2026-05-07 06:41 | 1.02558 | 94.48110 | 35848 ft | 515 kts | 310° |
| 2026-05-07 06:42 | 1.07091 | 94.42560 | 35853 ft | 515 kts | 310° |
| 2026-05-07 06:42 | 1.11619 | 94.37015 | 35851 ft | 515 kts | 310° |
| 2026-05-07 06:43 | 1.16151 | 94.31466 | 35849 ft | 515 kts | 310° |
| 2026-05-07 06:43 | 1.20687 | 94.25912 | 35848 ft | 515 kts | 310° |
| 2026-05-07 06:44 | 1.25193 | 94.20393 | 35849 ft | 515 kts | 310° |
| 2026-05-07 06:44 | 1.29729 | 94.14838 | 35854 ft | 515 kts | 310° |
| 2026-05-07 06:45 | 1.34260 | 94.09289 | 35851 ft | 515 kts | 310° |
| 2026-05-07 06:45 | 1.38799 | 94.03730 | 35846 ft | 516 kts | 310° |
| 2026-05-07 06:46 | 1.43339 | 93.98169 | 35848 ft | 516 kts | 310° |
| 2026-05-07 06:46 | 1.47875 | 93.92612 | 35850 ft | 516 kts | 310° |
| 2026-05-07 06:47 | 1.52421 | 93.87044 | 35847 ft | 517 kts | 310° |
| 2026-05-07 06:47 | 1.56966 | 93.81475 | 35848 ft | 517 kts | 310° |
| 2026-05-07 06:48 | 1.61519 | 93.75897 | 35843 ft | 518 kts | 310° |
| 2026-05-07 06:48 | 1.66049 | 93.70345 | 35846 ft | 518 kts | 310° |
| 2026-05-07 06:49 | 1.70605 | 93.64762 | 35848 ft | 519 kts | 310° |
| 2026-05-07 06:49 | 1.75171 | 93.59166 | 35849 ft | 519 kts | 310° |
| 2026-05-07 06:50 | 1.79736 | 93.53571 | 35842 ft | 519 kts | 310° |
| 2026-05-07 06:50 | 1.84300 | 93.47977 | 35843 ft | 519 kts | 310° |
| 2026-05-07 06:51 | 1.88865 | 93.42381 | 35837 ft | 519 kts | 311° |
| 2026-05-07 06:51 | 1.93432 | 93.36781 | 35840 ft | 519 kts | 311° |
| 2026-05-07 06:52 | 1.98000 | 93.31181 | 35840 ft | 519 kts | 311° |
| 2026-05-07 06:52 | 2.02577 | 93.25568 | 35843 ft | 519 kts | 311° |
| 2026-05-07 06:53 | 2.07110 | 93.20009 | 35844 ft | 519 kts | 311° |
| 2026-05-07 06:53 | 2.11671 | 93.14415 | 35835 ft | 519 kts | 311° |
| 2026-05-07 06:54 | 2.16232 | 93.08821 | 35835 ft | 519 kts | 311° |
| 2026-05-07 06:54 | 2.20789 | 93.03231 | 35831 ft | 518 kts | 311° |
| 2026-05-07 06:55 | 2.25357 | 92.97626 | 35830 ft | 518 kts | 311° |
| 2026-05-07 06:55 | 2.29916 | 92.92034 | 35836 ft | 518 kts | 311° |
| 2026-05-07 06:56 | 2.34440 | 92.86482 | 35832 ft | 518 kts | 311° |
| 2026-05-07 06:56 | 2.38995 | 92.80892 | 35835 ft | 518 kts | 311° |
| 2026-05-07 06:57 | 2.43540 | 92.75312 | 35832 ft | 517 kts | 311° |
| 2026-05-07 06:57 | 2.48085 | 92.69733 | 35827 ft | 517 kts | 311° |
| 2026-05-07 06:58 | 2.52620 | 92.64165 | 35832 ft | 516 kts | 311° |
| 2026-05-07 06:58 | 2.57154 | 92.58599 | 35830 ft | 515 kts | 311° |
| 2026-05-07 06:59 | 2.61686 | 92.53034 | 35828 ft | 515 kts | 311° |
| 2026-05-07 06:59 | 2.66216 | 92.47471 | 35831 ft | 515 kts | 311° |
| 2026-05-07 07:00 | 2.70719 | 92.41940 | 35829 ft | 516 kts | 311° |
| 2026-05-07 07:00 | 2.75256 | 92.36366 | 35828 ft | 517 kts | 311° |
| 2026-05-07 07:01 | 2.79802 | 92.30780 | 35833 ft | 518 kts | 311° |
| 2026-05-07 07:01 | 2.84357 | 92.25183 | 35828 ft | 519 kts | 311° |
| 2026-05-07 07:02 | 2.88920 | 92.19575 | 35827 ft | 520 kts | 311° |
| 2026-05-07 07:02 | 2.93497 | 92.13949 | 35826 ft | 521 kts | 311° |
| 2026-05-07 07:03 | 2.98076 | 92.08319 | 35830 ft | 522 kts | 311° |
| 2026-05-07 07:03 | 3.02656 | 92.02689 | 35827 ft | 521 kts | 311° |
| 2026-05-07 07:04 | 3.07249 | 91.97079 | 35825 ft | 520 kts | 311° |
| 2026-05-07 07:04 | 3.11952 | 91.91573 | 35827 ft | 520 kts | 312° |
| 2026-05-07 07:05 | 3.16670 | 91.86093 | 35832 ft | 519 kts | 312° |
| 2026-05-07 07:05 | 3.21334 | 91.80641 | 35825 ft | 519 kts | 311° |
| 2026-05-07 07:06 | 3.26013 | 91.75149 | 35824 ft | 518 kts | 311° |
| 2026-05-07 07:06 | 3.30683 | 91.69661 | 35822 ft | 517 kts | 311° |
| 2026-05-07 07:07 | 3.35351 | 91.64175 | 35822 ft | 517 kts | 311° |
| 2026-05-07 07:07 | 3.40014 | 91.58695 | 35823 ft | 517 kts | 311° |
| 2026-05-07 07:08 | 3.44670 | 91.53223 | 35828 ft | 516 kts | 311° |
| 2026-05-07 07:08 | 3.49325 | 91.47752 | 35824 ft | 516 kts | 311° |
| 2026-05-07 07:09 | 3.53973 | 91.42288 | 35828 ft | 515 kts | 311° |
| 2026-05-07 07:09 | 3.58622 | 91.36827 | 35821 ft | 515 kts | 311° |
| 2026-05-07 07:10 | 3.63270 | 91.31364 | 35823 ft | 515 kts | 311° |
| 2026-05-07 07:10 | 3.67912 | 91.25904 | 35826 ft | 515 kts | 311° |
| 2026-05-07 07:11 | 3.72526 | 91.20478 | 35821 ft | 514 kts | 311° |
| 2026-05-07 07:11 | 3.77168 | 91.15018 | 35823 ft | 514 kts | 311° |
| 2026-05-07 07:12 | 3.81811 | 91.09557 | 35826 ft | 514 kts | 311° |
| 2026-05-07 07:12 | 3.85668 | 91.05019 | 35821 ft | 514 kts | 311° |
| 2026-05-07 07:13 | 3.90303 | 90.99565 | 35820 ft | 514 kts | 311° |
| 2026-05-07 07:13 | 3.94940 | 90.94108 | 35821 ft | 514 kts | 311° |
| 2026-05-07 07:14 | 3.99573 | 90.88656 | 35821 ft | 514 kts | 311° |
| 2026-05-07 07:14 | 4.04206 | 90.83201 | 35819 ft | 514 kts | 311° |
| 2026-05-07 07:15 | 4.08843 | 90.77741 | 35819 ft | 514 kts | 311° |
| 2026-05-07 07:15 | 4.13475 | 90.72286 | 35820 ft | 514 kts | 311° |
| 2026-05-07 07:16 | 4.18112 | 90.66825 | 35820 ft | 514 kts | 311° |
| 2026-05-07 07:16 | 4.22751 | 90.61358 | 35818 ft | 515 kts | 311° |